Mississippi River Lock and Dam 8
Open river conditions where all gates have been raised completely out of the water currently exist at the following St. Paul District Lock and Dam Locations:
Lock and Dam 03
Lock and Dam 10
| Parameter | Latest Value | Date |
|---|---|---|
| Pool (ft) : | 630.21 | 04 May 2026, 15:15 |
| Tailwater (ft) : | 626.17 | 04 May 2026, 15:15 |
| Flow-Out (cfs) : | 72100 | 04 May 2026, 15:15 |
| Air Temp (F) : | 71 | 04 May 2026, 15:15 |
| Water Temp (F) : | 59 | 04 May 2026, 15:15 |
| Wind Speed (mph) : | 3 | 04 May 2026, 15:15 |
| Wind Dir (deg) : | 205 | 04 May 2026, 15:15 |
| Total 24 hr Precip. (in) : | 0.00 | 04 May 2026, 12:00 |
| Date/Time (UTC) | LockDam_08 Elev ft | LockDam_08-Tailwater Elev ft |
|---|---|---|
| May 4, 2026, 15:15 | 630.21 | 626.17 |
| May 4, 2026, 15:00 | 630.20 | 626.17 |
| May 4, 2026, 14:45 | 630.20 | 626.17 |
| May 4, 2026, 14:30 | 630.20 | 626.16 |
| May 4, 2026, 14:15 | 630.20 | 626.16 |
| May 4, 2026, 14:00 | 630.19 | 626.16 |
| May 4, 2026, 13:45 | 630.19 | 626.15 |
| May 4, 2026, 13:30 | 630.19 | 626.16 |
| May 4, 2026, 13:15 | 630.18 | 626.16 |
| May 4, 2026, 13:00 | 630.19 | 626.15 |
| May 4, 2026, 12:45 | 630.19 | 626.15 |
| May 4, 2026, 12:30 | 630.18 | 626.16 |
| May 4, 2026, 12:15 | 630.19 | 626.15 |
| May 4, 2026, 12:00 | 630.19 | 626.16 |
| May 4, 2026, 11:45 | 630.19 | 626.16 |
| May 4, 2026, 11:30 | 630.19 | 626.15 |
| May 4, 2026, 11:15 | 630.18 | 626.15 |
| May 4, 2026, 11:00 | 630.19 | 626.11 |
| May 4, 2026, 10:45 | 630.19 | 626.13 |
| May 4, 2026, 10:30 | 630.17 | 626.16 |
| May 4, 2026, 10:15 | 630.18 | 626.16 |
| May 4, 2026, 10:00 | 630.16 | 626.15 |
| May 4, 2026, 09:45 | 630.14 | 626.18 |
| May 4, 2026, 09:30 | 630.19 | 626.15 |
| May 4, 2026, 09:15 | 630.18 | 626.15 |
| May 4, 2026, 09:00 | 630.18 | 626.14 |
| May 4, 2026, 08:45 | 630.19 | 626.15 |
| May 4, 2026, 08:30 | 630.18 | 626.15 |
| May 4, 2026, 08:15 | 630.18 | 626.13 |
| May 4, 2026, 08:00 | 630.19 | 626.14 |
| May 4, 2026, 07:45 | 630.18 | 626.14 |
| May 4, 2026, 07:30 | 630.18 | 626.15 |
| May 4, 2026, 07:15 | 630.18 | 626.13 |
| May 4, 2026, 07:00 | 630.17 | 626.13 |
| May 4, 2026, 06:45 | 630.18 | 626.15 |
| May 4, 2026, 06:30 | 630.17 | 626.13 |
| May 4, 2026, 06:15 | 630.18 | 626.14 |
| May 4, 2026, 06:00 | 630.18 | 626.13 |
| May 4, 2026, 05:45 | 630.17 | 626.13 |
| May 4, 2026, 05:30 | 630.18 | 626.13 |
| May 4, 2026, 05:15 | 630.17 | 626.12 |
| May 4, 2026, 05:00 | 630.16 | 626.13 |
| May 4, 2026, 04:45 | 630.17 | 626.13 |
| May 4, 2026, 04:30 | 630.15 | 626.11 |
| May 4, 2026, 04:15 | 630.14 | 626.11 |
| May 4, 2026, 04:00 | 630.16 | 626.11 |
| May 4, 2026, 03:45 | 630.15 | 626.03 |
| May 4, 2026, 03:30 | 630.16 | 626.15 |
| May 4, 2026, 03:15 | 630.16 | 626.13 |
| May 4, 2026, 03:00 | 630.16 | 626.11 |
| May 4, 2026, 02:45 | 630.15 | 626.10 |
| May 4, 2026, 02:30 | 630.14 | 626.11 |
| May 4, 2026, 02:15 | 630.15 | 626.09 |
| May 4, 2026, 02:00 | 630.13 | 626.09 |
| May 4, 2026, 01:45 | 630.14 | 626.09 |
| May 4, 2026, 01:30 | 630.14 | 626.09 |
| May 4, 2026, 01:15 | 630.13 | 626.10 |
| May 4, 2026, 01:00 | 630.14 | 626.09 |
| May 4, 2026, 00:45 | 630.13 | 626.09 |
| May 4, 2026, 00:30 | 630.13 | 626.09 |
| May 4, 2026, 00:15 | 630.13 | 626.09 |
| May 3, 2026, 24:00 | 630.12 | 626.08 |
| May 3, 2026, 23:45 | 630.13 | 626.08 |
| May 3, 2026, 23:30 | 630.14 | 626.08 |
| May 3, 2026, 23:15 | 630.12 | 626.08 |
| May 3, 2026, 23:00 | 630.12 | 626.07 |
| May 3, 2026, 22:45 | 630.11 | 626.07 |
| May 3, 2026, 22:30 | 630.10 | 626.08 |
| May 3, 2026, 22:15 | 630.12 | 626.07 |
| May 3, 2026, 22:00 | 630.09 | 626.06 |
| May 3, 2026, 21:45 | 630.12 | 626.08 |
| May 3, 2026, 21:30 | 630.14 | 626.07 |
| May 3, 2026, 21:15 | 630.09 | 626.06 |
| May 3, 2026, 21:00 | 630.09 | 626.06 |
| May 3, 2026, 20:45 | 630.10 | 626.06 |
| May 3, 2026, 20:30 | 630.08 | 626.05 |
| May 3, 2026, 20:15 | 630.08 | 626.05 |
| May 3, 2026, 20:00 | 630.07 | 626.05 |
| May 3, 2026, 19:45 | 630.07 | 626.05 |
| May 3, 2026, 19:30 | 630.05 | 626.05 |
| May 3, 2026, 19:15 | 630.05 | 626.05 |
| May 3, 2026, 19:00 | 630.04 | 626.05 |
| May 3, 2026, 18:45 | 630.04 | 626.04 |
| May 3, 2026, 18:30 | 630.03 | 626.04 |
| May 3, 2026, 18:15 | 630.03 | 626.03 |
| May 3, 2026, 18:00 | 630.02 | 626.03 |
| May 3, 2026, 17:45 | 630.03 | 626.03 |
| May 3, 2026, 17:30 | 630.01 | 626.03 |
| May 3, 2026, 17:15 | 630.02 | 626.03 |
| May 3, 2026, 17:00 | 630.01 | 626.01 |
| May 3, 2026, 16:45 | 630.01 | 626.01 |
| May 3, 2026, 16:30 | 630.00 | 626.01 |
| May 3, 2026, 16:15 | 629.99 | 626.00 |
| May 3, 2026, 16:00 | 629.97 | 626.00 |
| May 3, 2026, 15:45 | 629.98 | 625.99 |
| May 3, 2026, 15:30 | 629.97 | 625.98 |
| May 3, 2026, 15:15 | 629.94 | 625.97 |
| May 3, 2026, 15:00 | 629.97 | 625.91 |
| May 3, 2026, 14:45 | 629.96 | 625.90 |
| May 3, 2026, 14:30 | 629.95 | 625.90 |
| May 3, 2026, 14:15 | 629.93 | 625.91 |
| May 3, 2026, 14:00 | 629.94 | 625.91 |
| May 3, 2026, 13:45 | 629.95 | 625.90 |
| May 3, 2026, 13:30 | 629.92 | 625.90 |
| May 3, 2026, 13:15 | 629.93 | 625.89 |
| May 3, 2026, 13:00 | 629.89 | 625.90 |
| May 3, 2026, 12:45 | 629.84 | 625.89 |
| May 3, 2026, 12:30 | 629.84 | 625.90 |
| May 3, 2026, 12:15 | 629.86 | 625.90 |
| May 3, 2026, 12:00 | 629.92 | 625.92 |
| May 3, 2026, 11:45 | 629.91 | 625.91 |
| May 3, 2026, 11:30 | 629.90 | 625.89 |
| May 3, 2026, 11:15 | 629.94 | 625.90 |
| May 3, 2026, 11:00 | 629.97 | 625.91 |
| May 3, 2026, 10:45 | 629.97 | 625.91 |
| May 3, 2026, 10:30 | 629.97 | 625.90 |
| May 3, 2026, 10:15 | 629.97 | 625.90 |
| May 3, 2026, 10:00 | 629.99 | 625.90 |
| May 3, 2026, 09:45 | 629.98 | 625.90 |
| May 3, 2026, 09:30 | 629.97 | 625.90 |
| May 3, 2026, 09:15 | 629.97 | 625.89 |
| May 3, 2026, 09:00 | 629.96 | 625.89 |
| May 3, 2026, 08:45 | 629.97 | 625.89 |
| May 3, 2026, 08:30 | 629.97 | 625.90 |
| May 3, 2026, 08:15 | 629.96 | 625.89 |
| May 3, 2026, 08:00 | 629.96 | 625.89 |
| May 3, 2026, 07:45 | 629.96 | 625.89 |
| May 3, 2026, 07:30 | 629.95 | 625.89 |
| May 3, 2026, 07:15 | 629.95 | 625.89 |
| May 3, 2026, 07:00 | 629.96 | 625.89 |
| May 3, 2026, 06:45 | 629.95 | 625.89 |
| May 3, 2026, 06:30 | 629.95 | 625.88 |
| May 3, 2026, 06:15 | 629.95 | 625.89 |
| May 3, 2026, 06:00 | 629.95 | 625.89 |
| May 3, 2026, 05:45 | 629.95 | 625.89 |
| May 3, 2026, 05:30 | 629.95 | 625.88 |
| May 3, 2026, 05:15 | 629.94 | 625.88 |
| May 3, 2026, 05:00 | 629.97 | 625.89 |
| May 3, 2026, 04:45 | 629.95 | 625.90 |
| May 3, 2026, 04:30 | 629.95 | 625.88 |
| May 3, 2026, 04:15 | 629.94 | 625.88 |
| May 3, 2026, 04:00 | 629.96 | 625.88 |
| May 3, 2026, 03:45 | 629.95 | 625.88 |
| May 3, 2026, 03:30 | 629.95 | 625.87 |
| May 3, 2026, 03:15 | 629.96 | 625.88 |
| May 3, 2026, 03:00 | 629.96 | 625.88 |
| May 3, 2026, 02:45 | 629.95 | 625.88 |
| May 3, 2026, 02:30 | 629.96 | 625.87 |
| May 3, 2026, 02:15 | 629.96 | 625.88 |
| May 3, 2026, 02:00 | 629.96 | 625.87 |
| May 3, 2026, 01:45 | 629.95 | 625.87 |
| May 3, 2026, 01:30 | 629.95 | 625.87 |
| May 3, 2026, 01:15 | 629.95 | 625.87 |
| May 3, 2026, 01:00 | 629.95 | 625.87 |
| May 3, 2026, 00:45 | 629.95 | 625.87 |
| May 3, 2026, 00:30 | 629.96 | 625.86 |
| May 3, 2026, 00:15 | 629.94 | 625.87 |
| May 2, 2026, 24:00 | 629.95 | 625.86 |
| May 2, 2026, 23:45 | 629.94 | 625.87 |
| May 2, 2026, 23:30 | 629.95 | 625.86 |
| May 2, 2026, 23:15 | 629.94 | 625.86 |
| May 2, 2026, 23:00 | 629.95 | 625.87 |
| May 2, 2026, 22:45 | 629.93 | 625.87 |
| May 2, 2026, 22:30 | 629.95 | 625.86 |
| May 2, 2026, 22:15 | 629.92 | 625.85 |
| May 2, 2026, 22:00 | 629.95 | 625.86 |
| May 2, 2026, 21:45 | 629.95 | 625.87 |
| May 2, 2026, 21:30 | 629.92 | 625.86 |
| May 2, 2026, 21:15 | 629.94 | 625.86 |
| May 2, 2026, 21:00 | 629.94 | 625.86 |
| May 2, 2026, 20:45 | 629.95 | 625.85 |
| May 2, 2026, 20:30 | 629.95 | 625.86 |
| May 2, 2026, 20:15 | 629.92 | 625.83 |
| May 2, 2026, 20:00 | 629.93 | 625.80 |
| May 2, 2026, 19:45 | 629.91 | 625.86 |
| May 2, 2026, 19:30 | 629.95 | 625.89 |
| May 2, 2026, 19:15 | 629.92 | 625.86 |
| May 2, 2026, 19:00 | 629.93 | 625.87 |
| May 2, 2026, 18:45 | 629.94 | 625.86 |
| May 2, 2026, 18:30 | 629.92 | 625.85 |
| May 2, 2026, 18:15 | 629.93 | 625.85 |
| May 2, 2026, 18:00 | 629.91 | 625.84 |
| May 2, 2026, 17:45 | 629.93 | 625.85 |
| May 2, 2026, 17:30 | 629.92 | 625.85 |
| May 2, 2026, 17:15 | 629.91 | 625.84 |
| May 2, 2026, 17:00 | 629.92 | 625.85 |
| May 2, 2026, 16:45 | 629.95 | 625.84 |
| May 2, 2026, 16:30 | 629.91 | 625.84 |
| May 2, 2026, 16:15 | 629.91 | 625.84 |
| May 2, 2026, 16:00 | 629.92 | 625.84 |
| May 2, 2026, 15:45 | 629.92 | 625.84 |
| May 2, 2026, 15:30 | 629.92 | 625.84 |
| May 2, 2026, 15:15 | 629.90 | 625.83 |
| May 2, 2026, 15:00 | 629.87 | 625.83 |
| May 2, 2026, 14:45 | 629.87 | 625.83 |
| May 2, 2026, 14:30 | 629.87 | 625.83 |
| May 2, 2026, 14:15 | 629.87 | 625.83 |
| May 2, 2026, 14:00 | 629.87 | 625.83 |
| May 2, 2026, 13:45 | 629.87 | 625.83 |
| May 2, 2026, 13:30 | 629.88 | 625.83 |
| May 2, 2026, 13:15 | 629.87 | 625.81 |
| May 2, 2026, 13:00 | 629.88 | 625.80 |
| May 2, 2026, 12:45 | 629.88 | 625.80 |
| May 2, 2026, 12:30 | 629.88 | 625.80 |
| May 2, 2026, 12:15 | 629.88 | 625.80 |
| May 2, 2026, 12:00 | 629.88 | 625.80 |
| May 2, 2026, 11:45 | 629.87 | 625.80 |
| May 2, 2026, 11:30 | 629.88 | 625.80 |
| May 2, 2026, 11:15 | 629.87 | 625.80 |
| May 2, 2026, 11:00 | 629.87 | 625.80 |
| May 2, 2026, 10:45 | 629.87 | 625.79 |
| May 2, 2026, 10:30 | 629.87 | 625.80 |
| May 2, 2026, 10:15 | 629.87 | 625.80 |
| May 2, 2026, 10:00 | 629.88 | 625.79 |
| May 2, 2026, 09:45 | 629.87 | 625.79 |
| May 2, 2026, 09:30 | 629.87 | 625.80 |
| May 2, 2026, 09:15 | 629.87 | 625.79 |
| May 2, 2026, 09:00 | 629.87 | 625.79 |
| May 2, 2026, 08:45 | 629.87 | 625.79 |
| May 2, 2026, 08:30 | 629.87 | 625.80 |
| May 2, 2026, 08:15 | 629.87 | 625.79 |
| May 2, 2026, 08:00 | 629.86 | 625.79 |
| May 2, 2026, 07:45 | 629.85 | 625.80 |
| May 2, 2026, 07:30 | 629.86 | 625.79 |
| May 2, 2026, 07:15 | 629.86 | 625.79 |
| May 2, 2026, 07:00 | 629.86 | 625.79 |
| May 2, 2026, 06:45 | 629.87 | 625.79 |
| May 2, 2026, 06:30 | 629.86 | 625.79 |
| May 2, 2026, 06:15 | 629.85 | 625.79 |
| May 2, 2026, 06:00 | 629.86 | 625.79 |
| May 2, 2026, 05:45 | 629.85 | 625.79 |
| May 2, 2026, 05:30 | 629.86 | 625.79 |
| May 2, 2026, 05:15 | 629.86 | 625.79 |
| May 2, 2026, 05:00 | 629.86 | 625.79 |
| May 2, 2026, 04:45 | 629.85 | 625.80 |
| May 2, 2026, 04:30 | 629.86 | 625.79 |
| May 2, 2026, 04:15 | 629.84 | 625.79 |
| May 2, 2026, 04:00 | 629.85 | 625.80 |
| May 2, 2026, 03:45 | 629.85 | 625.79 |
| May 2, 2026, 03:30 | 629.84 | 625.80 |
| May 2, 2026, 03:15 | 629.85 | 625.81 |
| May 2, 2026, 03:00 | 629.85 | 625.80 |
| May 2, 2026, 02:45 | 629.85 | 625.82 |
| May 2, 2026, 02:30 | 629.84 | 625.83 |
| May 2, 2026, 02:15 | 629.83 | 625.83 |
| May 2, 2026, 02:00 | 629.84 | 625.83 |
| May 2, 2026, 01:45 | 629.84 | 625.83 |
| May 2, 2026, 01:30 | 629.83 | 625.83 |
| May 2, 2026, 01:15 | 629.84 | 625.83 |
| May 2, 2026, 01:00 | 629.85 | 625.85 |
| May 2, 2026, 00:45 | 629.85 | 625.84 |
| May 2, 2026, 00:30 | 629.86 | 625.84 |
| May 2, 2026, 00:15 | 629.86 | 625.85 |
| May 1, 2026, 24:00 | 629.87 | 625.85 |
| May 1, 2026, 23:45 | 629.85 | 625.84 |
| May 1, 2026, 23:30 | 629.84 | 625.84 |
| May 1, 2026, 23:15 | 629.87 | 625.84 |
| May 1, 2026, 23:00 | 629.86 | 625.84 |
| May 1, 2026, 22:45 | 629.85 | 625.84 |
| May 1, 2026, 22:30 | 629.85 | 625.84 |
| May 1, 2026, 22:15 | 629.86 | 625.84 |
| May 1, 2026, 22:00 | 629.87 | 625.85 |
| May 1, 2026, 21:45 | 629.84 | 625.83 |
| May 1, 2026, 21:30 | 629.86 | 625.84 |
| May 1, 2026, 21:15 | 629.86 | 625.85 |
| May 1, 2026, 21:00 | 629.87 | 625.84 |
| May 1, 2026, 20:45 | 629.86 | 625.84 |
| May 1, 2026, 20:30 | 629.89 | 625.85 |
| May 1, 2026, 20:15 | 629.88 | 625.85 |
| May 1, 2026, 20:00 | 629.86 | 625.84 |
| May 1, 2026, 19:45 | 629.88 | 625.85 |
| May 1, 2026, 19:30 | 629.87 | 625.84 |
| May 1, 2026, 19:15 | 629.86 | 625.83 |
| May 1, 2026, 19:00 | 629.86 | 625.84 |
| May 1, 2026, 18:45 | 629.85 | 625.84 |
| May 1, 2026, 18:30 | 629.88 | 625.84 |
| May 1, 2026, 18:15 | 629.86 | 625.84 |
| May 1, 2026, 18:00 | 629.85 | 625.84 |
| May 1, 2026, 17:45 | 629.84 | 625.83 |
| May 1, 2026, 17:30 | 629.85 | 625.85 |
| May 1, 2026, 17:15 | 629.87 | 625.85 |
| May 1, 2026, 17:00 | 629.86 | 625.84 |
| May 1, 2026, 16:45 | 629.84 | 625.83 |
| May 1, 2026, 16:30 | 629.84 | 625.83 |
| May 1, 2026, 16:15 | 629.86 | 625.84 |
| May 1, 2026, 16:00 | 629.84 | 625.82 |
| May 1, 2026, 15:45 | 629.85 | 625.81 |
| May 1, 2026, 15:30 | 629.83 | 625.83 |
| May 1, 2026, 15:15 | 629.84 | 625.83 |
| May 1, 2026, 15:00 | 629.82 | 625.83 |
| May 1, 2026, 14:45 | 629.83 | 625.84 |
| May 1, 2026, 14:30 | 629.83 | 625.83 |
| May 1, 2026, 14:15 | 629.82 | 625.83 |
| May 1, 2026, 14:00 | 629.80 | 625.83 |
| May 1, 2026, 13:45 | 629.83 | 625.84 |
| May 1, 2026, 13:30 | 629.82 | 625.84 |
| May 1, 2026, 13:15 | 629.82 | 625.84 |
| May 1, 2026, 13:00 | 629.83 | 625.83 |
| May 1, 2026, 12:45 | 629.82 | 625.83 |
| May 1, 2026, 12:30 | 629.84 | 625.82 |
| May 1, 2026, 12:15 | 629.83 | 625.83 |
| May 1, 2026, 12:00 | 629.82 | 625.85 |
| May 1, 2026, 11:45 | 629.83 | 625.83 |
| May 1, 2026, 11:30 | 629.82 | 625.85 |
| May 1, 2026, 11:15 | 629.82 | 625.84 |
| May 1, 2026, 11:00 | 629.82 | 625.84 |
| May 1, 2026, 10:45 | 629.83 | 625.83 |
| May 1, 2026, 10:30 | 629.82 | 625.83 |
| May 1, 2026, 10:15 | 629.82 | 625.83 |
| May 1, 2026, 10:00 | 629.83 | 625.84 |
| May 1, 2026, 09:45 | 629.82 | 625.84 |
| May 1, 2026, 09:30 | 629.82 | 625.83 |
| May 1, 2026, 09:15 | 629.82 | 625.84 |
| May 1, 2026, 09:00 | 629.82 | 625.84 |
| May 1, 2026, 08:45 | 629.83 | 625.84 |
| May 1, 2026, 08:30 | 629.82 | 625.84 |
| May 1, 2026, 08:15 | 629.82 | 625.83 |
| May 1, 2026, 08:00 | 629.83 | 625.84 |
| May 1, 2026, 07:45 | 629.83 | 625.84 |
| May 1, 2026, 07:30 | 629.82 | 625.84 |
| May 1, 2026, 07:15 | 629.83 | 625.84 |
| May 1, 2026, 07:00 | 629.83 | 625.84 |
| May 1, 2026, 06:45 | 629.83 | 625.84 |
| May 1, 2026, 06:30 | 629.83 | 625.85 |
| May 1, 2026, 06:15 | 629.83 | 625.84 |
| May 1, 2026, 06:00 | 629.83 | 625.84 |
| May 1, 2026, 05:45 | 629.84 | 625.85 |
| May 1, 2026, 05:30 | 629.83 | 625.85 |
| May 1, 2026, 05:15 | 629.84 | 625.85 |
| May 1, 2026, 05:00 | 629.84 | 625.85 |
| May 1, 2026, 04:45 | 629.84 | 625.85 |
| May 1, 2026, 04:30 | 629.85 | 625.85 |
| May 1, 2026, 04:15 | 629.84 | 625.86 |
| May 1, 2026, 04:00 | 629.85 | 625.86 |
| May 1, 2026, 03:45 | 629.85 | 625.86 |
| May 1, 2026, 03:30 | 629.86 | 625.86 |
| May 1, 2026, 03:15 | 629.87 | 625.86 |
| May 1, 2026, 03:00 | 629.88 | 625.88 |
| May 1, 2026, 02:45 | 629.90 | 625.88 |
| May 1, 2026, 02:30 | 629.91 | 625.88 |
| May 1, 2026, 02:15 | 629.92 | 625.89 |
| May 1, 2026, 02:00 | 629.94 | 625.89 |
| May 1, 2026, 01:45 | 629.95 | 625.90 |
| May 1, 2026, 01:30 | 629.97 | 625.90 |
| May 1, 2026, 01:15 | 629.95 | 625.89 |
| May 1, 2026, 01:00 | 629.93 | 625.89 |
| May 1, 2026, 00:45 | 629.93 | 625.88 |
| May 1, 2026, 00:30 | 629.90 | 625.88 |
| May 1, 2026, 00:15 | 629.91 | 625.88 |
| April 30, 2026, 24:00 | 629.92 | 625.87 |
| April 30, 2026, 23:45 | 629.91 | 625.87 |
| April 30, 2026, 23:30 | 629.92 | 625.87 |
| April 30, 2026, 23:15 | 629.92 | 625.88 |
| April 30, 2026, 23:00 | 629.93 | 625.88 |
| April 30, 2026, 22:45 | 629.94 | 625.88 |
| April 30, 2026, 22:30 | 629.92 | 625.88 |
| April 30, 2026, 22:15 | 629.91 | 625.88 |
| April 30, 2026, 22:00 | 629.92 | 625.87 |
| April 30, 2026, 21:45 | 629.92 | 625.87 |
| April 30, 2026, 21:30 | 629.91 | 625.87 |
| April 30, 2026, 21:15 | 629.92 | 625.88 |
| April 30, 2026, 21:00 | 629.91 | 625.87 |
| April 30, 2026, 20:45 | 629.91 | 625.87 |
| April 30, 2026, 20:30 | 629.92 | 625.87 |
| April 30, 2026, 20:15 | 629.93 | 625.87 |
| April 30, 2026, 20:00 | 629.89 | 625.85 |
| April 30, 2026, 19:45 | 629.93 | 625.86 |
| April 30, 2026, 19:30 | 629.90 | 625.87 |
| April 30, 2026, 19:15 | 629.92 | 625.86 |
| April 30, 2026, 19:00 | 629.87 | 625.87 |
| April 30, 2026, 18:45 | 629.87 | 625.86 |
| April 30, 2026, 18:30 | 629.89 | 625.87 |
| April 30, 2026, 18:15 | 629.89 | 625.87 |
| April 30, 2026, 18:00 | 629.90 | 625.86 |
| April 30, 2026, 17:45 | 629.89 | 625.86 |
| April 30, 2026, 17:30 | 629.90 | 625.87 |
| April 30, 2026, 17:15 | 629.91 | 625.89 |
| April 30, 2026, 17:00 | 629.92 | 625.86 |
| April 30, 2026, 16:45 | 629.92 | 625.85 |
| April 30, 2026, 16:30 | 629.91 | 625.85 |
| April 30, 2026, 16:15 | 629.91 | 625.86 |
| April 30, 2026, 16:00 | 629.91 | 625.87 |
| April 30, 2026, 15:45 | 629.91 | 625.87 |
| April 30, 2026, 15:30 | 629.90 | 625.87 |
| April 30, 2026, 15:15 | 629.89 | 625.87 |
| April 30, 2026, 15:00 | 629.89 | 625.87 |
| April 30, 2026, 14:45 | 629.88 | 625.87 |
| April 30, 2026, 14:30 | 629.88 | 625.86 |
| April 30, 2026, 14:15 | 629.88 | 625.87 |
| April 30, 2026, 14:00 | 629.88 | 625.86 |
| April 30, 2026, 13:45 | 629.88 | 625.87 |
| April 30, 2026, 13:30 | 629.88 | 625.87 |
| April 30, 2026, 13:15 | 629.88 | 625.87 |
| April 30, 2026, 13:00 | 629.88 | 625.87 |
| April 30, 2026, 12:45 | 629.88 | 625.87 |
| April 30, 2026, 12:30 | 629.88 | 625.87 |
| April 30, 2026, 12:15 | 629.89 | 625.85 |
| April 30, 2026, 12:00 | 629.88 | 625.86 |
| April 30, 2026, 11:45 | 629.88 | 625.87 |
| April 30, 2026, 11:30 | 629.88 | 625.85 |
| April 30, 2026, 11:15 | 629.88 | 625.87 |
| April 30, 2026, 11:00 | 629.88 | 625.89 |
| April 30, 2026, 10:45 | 629.90 | 625.87 |
| April 30, 2026, 10:30 | 629.85 | 625.91 |
| April 30, 2026, 10:15 | 629.88 | 625.86 |
| April 30, 2026, 10:00 | 629.87 | 625.86 |
| April 30, 2026, 09:45 | 629.88 | 625.85 |
| April 30, 2026, 09:30 | 629.86 | 625.86 |
| April 30, 2026, 09:15 | 629.89 | 625.86 |
| April 30, 2026, 09:00 | 629.88 | 625.86 |
| April 30, 2026, 08:45 | 629.89 | 625.85 |
| April 30, 2026, 08:30 | 629.89 | 625.85 |
| April 30, 2026, 08:15 | 629.88 | 625.85 |
| April 30, 2026, 08:00 | 629.88 | 625.85 |
| April 30, 2026, 07:45 | 629.89 | 625.85 |
| April 30, 2026, 07:30 | 629.88 | 625.86 |
| April 30, 2026, 07:15 | 629.89 | 625.85 |
| April 30, 2026, 07:00 | 629.88 | 625.85 |
| April 30, 2026, 06:45 | 629.89 | 625.85 |
| April 30, 2026, 06:30 | 629.89 | 625.85 |
| April 30, 2026, 06:15 | 629.89 | 625.86 |
| April 30, 2026, 06:00 | 629.89 | 625.85 |
| April 30, 2026, 05:45 | 629.89 | 625.86 |
| April 30, 2026, 05:30 | 629.89 | 625.85 |
| April 30, 2026, 05:15 | 629.89 | 625.85 |
| April 30, 2026, 05:00 | 629.89 | 625.85 |
| April 30, 2026, 04:45 | 629.89 | 625.85 |
| April 30, 2026, 04:30 | 629.89 | 625.85 |
| April 30, 2026, 04:15 | 629.90 | 625.85 |
| April 30, 2026, 04:00 | 629.90 | 625.85 |
| April 30, 2026, 03:45 | 629.91 | 625.85 |
| April 30, 2026, 03:30 | 629.90 | 625.85 |
| April 30, 2026, 03:15 | 629.90 | 625.85 |
| April 30, 2026, 03:00 | 629.89 | 625.86 |
| April 30, 2026, 02:45 | 629.90 | 625.86 |
| April 30, 2026, 02:30 | 629.90 | 625.86 |
| April 30, 2026, 02:15 | 629.91 | 625.87 |
| April 30, 2026, 02:00 | 629.91 | 625.87 |
| April 30, 2026, 01:45 | 629.92 | 625.87 |
| April 30, 2026, 01:30 | 629.93 | 625.87 |
| April 30, 2026, 01:15 | 629.92 | 625.86 |
| April 30, 2026, 01:00 | 629.93 | 625.87 |
| April 30, 2026, 00:45 | 629.92 | 625.86 |
| April 30, 2026, 00:30 | 629.93 | 625.88 |
| April 30, 2026, 00:15 | 629.93 | 625.87 |
| April 29, 2026, 24:00 | 629.94 | 625.87 |
| April 29, 2026, 23:45 | 629.95 | 625.88 |
| April 29, 2026, 23:30 | 629.97 | 625.88 |
| April 29, 2026, 23:15 | 629.95 | 625.88 |
| April 29, 2026, 23:00 | 629.96 | 625.87 |
| April 29, 2026, 22:45 | 629.95 | 625.87 |
| April 29, 2026, 22:30 | 629.97 | 625.87 |
| April 29, 2026, 22:15 | 629.96 | 625.88 |
| April 29, 2026, 22:00 | 629.94 | 625.87 |
| April 29, 2026, 21:45 | 629.99 | 625.88 |
| April 29, 2026, 21:30 | 629.98 | 625.87 |
| April 29, 2026, 21:15 | 629.95 | 625.87 |
| April 29, 2026, 21:00 | 629.95 | 625.87 |
| April 29, 2026, 20:45 | 629.97 | 625.87 |
| April 29, 2026, 20:30 | 629.97 | 625.88 |
| April 29, 2026, 20:15 | 629.95 | 625.86 |
| April 29, 2026, 20:00 | 629.93 | 625.86 |
| April 29, 2026, 19:45 | 629.95 | 625.87 |
| April 29, 2026, 19:30 | 630.00 | 625.87 |
| April 29, 2026, 19:15 | 629.95 | 625.87 |
| April 29, 2026, 19:00 | 629.96 | 625.87 |
| April 29, 2026, 18:45 | 629.97 | 625.88 |
| April 29, 2026, 18:30 | 630.01 | 625.88 |
| April 29, 2026, 18:15 | 629.99 | 625.87 |
| April 29, 2026, 18:00 | 630.01 | 625.87 |
| April 29, 2026, 17:45 | 629.99 | 625.87 |
| April 29, 2026, 17:30 | 630.01 | 625.87 |
| April 29, 2026, 17:15 | 629.99 | 625.89 |
| April 29, 2026, 17:00 | 630.01 | 625.88 |
| April 29, 2026, 16:45 | 630.00 | 625.88 |
| April 29, 2026, 16:30 | 629.97 | 625.88 |
| April 29, 2026, 16:15 | 630.00 | 625.87 |
| April 29, 2026, 16:00 | 630.03 | 625.87 |
| April 29, 2026, 15:45 | 630.00 | 625.89 |
| April 29, 2026, 15:30 | 630.03 | 625.88 |
| April 29, 2026, 15:15 | 629.98 | 625.86 |
| April 29, 2026, 15:00 | 629.98 | 625.87 |
| April 29, 2026, 14:45 | 629.98 | 625.88 |
| April 29, 2026, 14:30 | 629.98 | 625.85 |
| April 29, 2026, 14:15 | 629.98 | 625.91 |
| April 29, 2026, 14:00 | 629.98 | 625.85 |
| April 29, 2026, 13:45 | 630.00 | 625.86 |
| April 29, 2026, 13:30 | 629.99 | 625.85 |
| April 29, 2026, 13:15 | 629.96 | 625.85 |
| April 29, 2026, 13:00 | 629.99 | 625.85 |
| April 29, 2026, 12:45 | 629.99 | 625.85 |
| April 29, 2026, 12:30 | 629.96 | 625.85 |
| April 29, 2026, 12:15 | 629.99 | 625.85 |
| April 29, 2026, 12:00 | 629.99 | 625.85 |
| April 29, 2026, 11:45 | 629.99 | 625.85 |
| April 29, 2026, 11:30 | 629.99 | 625.85 |
| April 29, 2026, 11:15 | 630.00 | 625.84 |
| April 29, 2026, 11:00 | 630.00 | 625.85 |
| April 29, 2026, 10:45 | 630.00 | 625.85 |
| April 29, 2026, 10:30 | 630.00 | 625.85 |
| April 29, 2026, 10:15 | 630.01 | 625.85 |
| April 29, 2026, 10:00 | 630.03 | 625.85 |
| April 29, 2026, 09:45 | 630.04 | 625.84 |
| April 29, 2026, 09:30 | 630.03 | 625.85 |
| April 29, 2026, 09:15 | 630.04 | 625.85 |
| April 29, 2026, 09:00 | 630.05 | 625.84 |
| April 29, 2026, 08:45 | 630.04 | 625.84 |
| April 29, 2026, 08:30 | 630.05 | 625.85 |
| April 29, 2026, 08:15 | 630.07 | 625.84 |
| April 29, 2026, 08:00 | 630.07 | 625.85 |
| April 29, 2026, 07:45 | 630.07 | 625.84 |
| April 29, 2026, 07:30 | 630.08 | 625.84 |
| April 29, 2026, 07:15 | 630.09 | 625.84 |
| April 29, 2026, 07:00 | 630.10 | 625.84 |
| April 29, 2026, 06:45 | 630.11 | 625.84 |
| April 29, 2026, 06:30 | 630.12 | 625.83 |
| April 29, 2026, 06:15 | 630.13 | 625.83 |
| April 29, 2026, 06:00 | 630.13 | 625.82 |
| April 29, 2026, 05:45 | 630.15 | 625.81 |
| April 29, 2026, 05:30 | 630.13 | 625.80 |
| April 29, 2026, 05:15 | 630.14 | 625.79 |
| April 29, 2026, 05:00 | 630.15 | 625.76 |
| April 29, 2026, 04:45 | 630.15 | 625.75 |
| April 29, 2026, 04:30 | 630.13 | 625.73 |
| April 29, 2026, 04:15 | 630.20 | 625.59 |
| April 29, 2026, 04:00 | 630.21 | 625.59 |
| April 29, 2026, 03:45 | 630.20 | 625.58 |
| April 29, 2026, 03:30 | 630.21 | 625.59 |
| April 29, 2026, 03:15 | 630.22 | 625.59 |
| April 29, 2026, 03:00 | 630.22 | 625.58 |
| April 29, 2026, 02:45 | 630.21 | 625.58 |
| April 29, 2026, 02:30 | 630.19 | 625.58 |
| April 29, 2026, 02:15 | 630.19 | 625.57 |
| April 29, 2026, 02:00 | 630.17 | 625.57 |
| April 29, 2026, 01:45 | 630.18 | 625.57 |
| April 29, 2026, 01:30 | 630.18 | 625.57 |
| April 29, 2026, 01:15 | 630.18 | 625.57 |
| April 29, 2026, 01:00 | 630.18 | 625.57 |
| April 29, 2026, 00:45 | 630.18 | 625.57 |
| April 29, 2026, 00:30 | 630.19 | 625.57 |
| April 29, 2026, 00:15 | 630.19 | 625.57 |
| April 28, 2026, 24:00 | 630.19 | 625.57 |
| April 28, 2026, 23:45 | 630.18 | 625.57 |
| April 28, 2026, 23:30 | 630.18 | 625.57 |
| April 28, 2026, 23:15 | 630.19 | 625.57 |
| April 28, 2026, 23:00 | 630.17 | 625.57 |
| April 28, 2026, 22:45 | 630.19 | 625.57 |
| April 28, 2026, 22:30 | 630.21 | 625.57 |
| April 28, 2026, 22:15 | 630.15 | 625.55 |
| April 28, 2026, 22:00 | 630.20 | 625.56 |
| April 28, 2026, 21:45 | 630.20 | 625.56 |
| April 28, 2026, 21:30 | 630.21 | 625.56 |
| April 28, 2026, 21:15 | 630.18 | 625.55 |
| April 28, 2026, 21:00 | 630.16 | 625.56 |
| April 28, 2026, 20:45 | 630.16 | 625.56 |
| April 28, 2026, 20:30 | 630.18 | 625.55 |
| April 28, 2026, 20:15 | 630.20 | 625.55 |
| April 28, 2026, 20:00 | 630.17 | 625.54 |
| April 28, 2026, 19:45 | 630.18 | 625.52 |
| April 28, 2026, 19:30 | 630.19 | 625.56 |
| April 28, 2026, 19:15 | 630.19 | 625.55 |
| April 28, 2026, 19:00 | 630.16 | 625.54 |
| April 28, 2026, 18:45 | 630.20 | 625.53 |
| April 28, 2026, 18:30 | 630.17 | 625.53 |
| April 28, 2026, 18:15 | 630.20 | 625.54 |
| April 28, 2026, 18:00 | 630.19 | 625.53 |
| April 28, 2026, 17:45 | 630.18 | 625.53 |
| April 28, 2026, 17:30 | 630.19 | 625.53 |
| April 28, 2026, 17:15 | 630.21 | 625.52 |
| April 28, 2026, 17:00 | 630.20 | 625.53 |
| April 28, 2026, 16:45 | 630.21 | 625.52 |
| April 28, 2026, 16:30 | 630.21 | 625.52 |
| April 28, 2026, 16:15 | 630.21 | 625.52 |
| April 28, 2026, 16:00 | 630.21 | 625.51 |
| April 28, 2026, 15:45 | 630.20 | 625.50 |
| April 28, 2026, 15:30 | 630.24 | 625.50 |
| April 28, 2026, 15:15 | 630.21 | 625.48 |
| April 28, 2026, 15:00 | 630.21 | 625.48 |
| April 28, 2026, 14:45 | 630.22 | 625.48 |
| April 28, 2026, 14:30 | 630.22 | 625.47 |
| April 28, 2026, 14:15 | 630.22 | 625.46 |
| April 28, 2026, 14:00 | 630.21 | 625.44 |
| April 28, 2026, 13:45 | 630.24 | 625.42 |
| April 28, 2026, 13:30 | 630.22 | 625.40 |
| April 28, 2026, 13:15 | 630.21 | 625.31 |
| April 28, 2026, 13:00 | 630.27 | 625.24 |
| April 28, 2026, 12:45 | 630.28 | 625.24 |
| April 28, 2026, 12:30 | 630.25 | 625.23 |
| April 28, 2026, 12:15 | 630.25 | 625.23 |
| April 28, 2026, 12:00 | 630.24 | 625.23 |
| April 28, 2026, 11:45 | 630.24 | 625.23 |
| April 28, 2026, 11:30 | 630.24 | 625.23 |
| April 28, 2026, 11:15 | 630.23 | 625.22 |
| April 28, 2026, 11:00 | 630.23 | 625.22 |
| April 28, 2026, 10:45 | 630.22 | 625.22 |
| April 28, 2026, 10:30 | 630.20 | 625.22 |
| April 28, 2026, 10:15 | 630.20 | 625.21 |
| April 28, 2026, 10:00 | 630.18 | 625.21 |
| April 28, 2026, 09:45 | 630.22 | 625.22 |
| April 28, 2026, 09:30 | 630.20 | 625.21 |
| April 28, 2026, 09:15 | 630.17 | 625.21 |
| April 28, 2026, 09:00 | 630.19 | 625.21 |
| April 28, 2026, 08:45 | 630.15 | 625.20 |
| April 28, 2026, 08:30 | 630.17 | 625.20 |
| April 28, 2026, 08:15 | 630.15 | 625.20 |
| April 28, 2026, 08:00 | 630.14 | 625.19 |
| April 28, 2026, 07:45 | 630.13 | 625.19 |
| April 28, 2026, 07:30 | 630.12 | 625.18 |
| April 28, 2026, 07:15 | 630.12 | 625.18 |
| April 28, 2026, 07:00 | 630.11 | 625.19 |
| April 28, 2026, 06:45 | 630.11 | 625.17 |
| April 28, 2026, 06:30 | 630.07 | 625.19 |
| April 28, 2026, 06:15 | 630.08 | 625.17 |
| April 28, 2026, 06:00 | 630.05 | 625.18 |
| April 28, 2026, 05:45 | 630.06 | 625.17 |
| April 28, 2026, 05:30 | 630.03 | 625.17 |
| April 28, 2026, 05:15 | 630.04 | 625.16 |
| April 28, 2026, 05:00 | 630.03 | 625.17 |
| April 28, 2026, 04:45 | 630.02 | 625.15 |
| April 28, 2026, 04:30 | 630.03 | 625.16 |
| April 28, 2026, 04:15 | 630.01 | 625.16 |
| April 28, 2026, 04:00 | 629.99 | 625.15 |
| April 28, 2026, 03:45 | 629.98 | 625.16 |
| April 28, 2026, 03:30 | 629.98 | 625.15 |
| April 28, 2026, 03:15 | 629.99 | 625.16 |
| April 28, 2026, 03:00 | 629.99 | 625.15 |
| April 28, 2026, 02:45 | 629.96 | 625.16 |
| April 28, 2026, 02:30 | 629.97 | 625.15 |
| April 28, 2026, 02:15 | 629.98 | 625.15 |
| April 28, 2026, 02:00 | 629.94 | 625.15 |
| April 28, 2026, 01:45 | 629.96 | 625.15 |
| April 28, 2026, 01:30 | 629.95 | 625.15 |
| April 28, 2026, 01:15 | 629.97 | 625.15 |
| April 28, 2026, 01:00 | 629.98 | 625.15 |
| April 28, 2026, 00:45 | 629.95 | 625.16 |
| April 28, 2026, 00:30 | 629.95 | 625.15 |
| April 28, 2026, 00:15 | 629.95 | 625.16 |
| April 27, 2026, 24:00 | 629.95 | 625.16 |
| April 27, 2026, 23:45 | 629.96 | 625.15 |
| April 27, 2026, 23:30 | 629.94 | 625.15 |
| April 27, 2026, 23:15 | 629.96 | 625.15 |
| April 27, 2026, 23:00 | 629.97 | 625.15 |
| April 27, 2026, 22:45 | 629.97 | 625.14 |
| April 27, 2026, 22:30 | 629.97 | 625.13 |
| April 27, 2026, 22:15 | 629.96 | 625.14 |
| April 27, 2026, 22:00 | 629.95 | 625.13 |
| April 27, 2026, 21:45 | 629.95 | 625.16 |
| April 27, 2026, 21:30 | 629.97 | 625.13 |
| April 27, 2026, 21:15 | 629.91 | 625.16 |
| April 27, 2026, 21:00 | 629.94 | 625.13 |
| April 27, 2026, 20:45 | 629.92 | 625.12 |
| April 27, 2026, 20:30 | 629.92 | 625.12 |
| April 27, 2026, 20:15 | 629.86 | 625.13 |
| April 27, 2026, 20:00 | 629.92 | 625.13 |
| April 27, 2026, 19:45 | 629.90 | 625.13 |
| April 27, 2026, 19:30 | 629.89 | 625.15 |
| April 27, 2026, 19:15 | 629.92 | 625.14 |
| April 27, 2026, 19:00 | 629.90 | 625.11 |
| April 27, 2026, 18:45 | 629.90 | 625.10 |
| April 27, 2026, 18:30 | 629.89 | 625.11 |
| April 27, 2026, 18:15 | 629.92 | 625.10 |
| April 27, 2026, 18:00 | 629.93 | 625.10 |
| April 27, 2026, 17:45 | 629.92 | 625.09 |
| April 27, 2026, 17:30 | 629.96 | 625.10 |
| April 27, 2026, 17:15 | 629.97 | 625.09 |
| April 27, 2026, 17:00 | 629.98 | 625.08 |
| April 27, 2026, 16:45 | 630.00 | 625.08 |
| April 27, 2026, 16:30 | 629.97 | 625.06 |
| April 27, 2026, 16:15 | 629.96 | 625.03 |
| Date/Time (UTC) | LockDam_08 Flow cfs |
|---|---|
| May 4, 2026, 15:15 | 72100 |
| May 4, 2026, 15:00 | 72000 |
| May 4, 2026, 14:45 | 72000 |
| May 4, 2026, 14:30 | 72100 |
| May 4, 2026, 14:15 | 72100 |
| May 4, 2026, 14:00 | 72000 |
| May 4, 2026, 13:45 | 72100 |
| May 4, 2026, 13:30 | 72000 |
| May 4, 2026, 13:15 | 71900 |
| May 4, 2026, 13:00 | 72100 |
| May 4, 2026, 12:45 | 72100 |
| May 4, 2026, 12:30 | 71900 |
| May 4, 2026, 12:15 | 72100 |
| May 4, 2026, 12:00 | 72000 |
| May 4, 2026, 11:45 | 72000 |
| May 4, 2026, 11:30 | 72100 |
| May 4, 2026, 11:15 | 72000 |
| May 4, 2026, 11:00 | 72400 |
| May 4, 2026, 10:45 | 72300 |
| May 4, 2026, 10:30 | 71800 |
| May 4, 2026, 10:15 | 71900 |
| May 4, 2026, 10:00 | 71800 |
| May 4, 2026, 09:45 | 71300 |
| May 4, 2026, 09:30 | 72100 |
| May 4, 2026, 09:15 | 72000 |
| May 4, 2026, 09:00 | 72100 |
| May 4, 2026, 08:45 | 72100 |
| May 4, 2026, 08:30 | 72000 |
| May 4, 2026, 08:15 | 72200 |
| May 4, 2026, 08:00 | 72200 |
| May 4, 2026, 07:45 | 72100 |
| May 4, 2026, 07:30 | 72000 |
| May 4, 2026, 07:15 | 72200 |
| May 4, 2026, 07:00 | 72100 |
| May 4, 2026, 06:45 | 72000 |
| May 4, 2026, 06:30 | 72100 |
| May 4, 2026, 06:15 | 72100 |
| May 4, 2026, 06:00 | 72200 |
| May 4, 2026, 05:45 | 72100 |
| May 4, 2026, 05:30 | 72200 |
| May 4, 2026, 05:15 | 72200 |
| May 4, 2026, 05:00 | 72000 |
| May 4, 2026, 04:45 | 72100 |
| May 4, 2026, 04:30 | 72100 |
| May 4, 2026, 04:15 | 72000 |
| May 4, 2026, 04:00 | 72200 |
| May 4, 2026, 03:45 | 72800 |
| May 4, 2026, 03:30 | 71800 |
| May 4, 2026, 03:15 | 72000 |
| May 4, 2026, 03:00 | 72200 |
| May 4, 2026, 02:45 | 72200 |
| May 4, 2026, 02:30 | 72000 |
| May 4, 2026, 02:15 | 72300 |
| May 4, 2026, 02:00 | 72100 |
| May 4, 2026, 01:45 | 72200 |
| May 4, 2026, 01:30 | 72200 |
| May 4, 2026, 01:15 | 72000 |
| May 4, 2026, 01:00 | 72200 |
| May 4, 2026, 00:45 | 72100 |
| May 4, 2026, 00:30 | 72100 |
| May 4, 2026, 00:15 | 72100 |
| May 3, 2026, 24:00 | 72100 |
| May 3, 2026, 23:45 | 72200 |
| May 3, 2026, 23:30 | 72300 |
| May 3, 2026, 23:15 | 72100 |
| May 3, 2026, 23:00 | 72200 |
| May 3, 2026, 22:45 | 72100 |
| May 3, 2026, 22:30 | 71900 |
| May 3, 2026, 22:15 | 72200 |
| May 3, 2026, 22:00 | 72000 |
| May 3, 2026, 21:45 | 72100 |
| May 3, 2026, 21:30 | 72400 |
| May 3, 2026, 21:15 | 72000 |
| May 3, 2026, 21:00 | 72000 |
| May 3, 2026, 20:45 | 72100 |
| May 3, 2026, 20:30 | 72000 |
| May 3, 2026, 20:15 | 72000 |
| May 3, 2026, 20:00 | 71900 |
| May 3, 2026, 19:45 | 71900 |
| May 3, 2026, 19:30 | 71700 |
| May 3, 2026, 19:15 | 71700 |
| May 3, 2026, 19:00 | 71600 |
| May 3, 2026, 18:45 | 71700 |
| May 3, 2026, 18:30 | 71600 |
| May 3, 2026, 18:15 | 71700 |
| May 3, 2026, 18:00 | 71600 |
| May 3, 2026, 17:45 | 71700 |
| May 3, 2026, 17:30 | 71500 |
| May 3, 2026, 17:15 | 71600 |
| May 3, 2026, 17:00 | 71700 |
| May 3, 2026, 16:45 | 71700 |
| May 3, 2026, 16:30 | 71600 |
| May 3, 2026, 16:15 | 71600 |
| May 3, 2026, 16:00 | 71400 |
| May 3, 2026, 15:45 | 71600 |
| May 3, 2026, 15:30 | 71600 |
| May 3, 2026, 15:15 | 71400 |
| May 3, 2026, 15:00 | 72300 |
| May 3, 2026, 14:45 | 69000 |
| May 3, 2026, 14:30 | 69000 |
| May 3, 2026, 14:15 | 68700 |
| May 3, 2026, 14:00 | 68800 |
| May 3, 2026, 13:45 | 69000 |
| May 3, 2026, 13:30 | 68700 |
| May 3, 2026, 13:15 | 68900 |
| May 3, 2026, 13:00 | 68400 |
| May 3, 2026, 12:45 | 68100 |
| May 3, 2026, 12:30 | 68000 |
| May 3, 2026, 12:15 | 68200 |
| May 3, 2026, 12:00 | 68500 |
| May 3, 2026, 11:45 | 68500 |
| May 3, 2026, 11:30 | 68600 |
| May 3, 2026, 11:15 | 68900 |
| May 3, 2026, 11:00 | 69000 |
| May 3, 2026, 10:45 | 69000 |
| May 3, 2026, 10:30 | 69100 |
| May 3, 2026, 10:15 | 69100 |
| May 3, 2026, 10:00 | 69300 |
| May 3, 2026, 09:45 | 69200 |
| May 3, 2026, 09:30 | 69100 |
| May 3, 2026, 09:15 | 69200 |
| May 3, 2026, 09:00 | 69100 |
| May 3, 2026, 08:45 | 69200 |
| May 3, 2026, 08:30 | 69100 |
| May 3, 2026, 08:15 | 69100 |
| May 3, 2026, 08:00 | 69100 |
| May 3, 2026, 07:45 | 69100 |
| May 3, 2026, 07:30 | 69000 |
| May 3, 2026, 07:15 | 69000 |
| May 3, 2026, 07:00 | 69100 |
| May 3, 2026, 06:45 | 69000 |
| May 3, 2026, 06:30 | 69100 |
| May 3, 2026, 06:15 | 69000 |
| May 3, 2026, 06:00 | 69000 |
| May 3, 2026, 05:45 | 69000 |
| May 3, 2026, 05:30 | 69100 |
| May 3, 2026, 05:15 | 69000 |
| May 3, 2026, 05:00 | 69200 |
| May 3, 2026, 04:45 | 69000 |
| May 3, 2026, 04:30 | 69100 |
| May 3, 2026, 04:15 | 69000 |
| May 3, 2026, 04:00 | 69200 |
| May 3, 2026, 03:45 | 69100 |
| May 3, 2026, 03:30 | 69200 |
| May 3, 2026, 03:15 | 69200 |
| May 3, 2026, 03:00 | 69200 |
| May 3, 2026, 02:45 | 69100 |
| May 3, 2026, 02:30 | 69300 |
| May 3, 2026, 02:15 | 69200 |
| May 3, 2026, 02:00 | 69300 |
| May 3, 2026, 01:45 | 69200 |
| May 3, 2026, 01:30 | 69200 |
| May 3, 2026, 01:15 | 69200 |
| May 3, 2026, 01:00 | 69200 |
| May 3, 2026, 00:45 | 69200 |
| May 3, 2026, 00:30 | 69400 |
| May 3, 2026, 00:15 | 69100 |
| May 2, 2026, 24:00 | 69300 |
| May 2, 2026, 23:45 | 69100 |
| May 2, 2026, 23:30 | 69300 |
| May 2, 2026, 23:15 | 69200 |
| May 2, 2026, 23:00 | 69200 |
| May 2, 2026, 22:45 | 69000 |
| May 2, 2026, 22:30 | 69300 |
| May 2, 2026, 22:15 | 69100 |
| May 2, 2026, 22:00 | 69300 |
| May 2, 2026, 21:45 | 69200 |
| May 2, 2026, 21:30 | 69000 |
| May 2, 2026, 21:15 | 69200 |
| May 2, 2026, 21:00 | 69200 |
| May 2, 2026, 20:45 | 69400 |
| May 2, 2026, 20:30 | 69300 |
| May 2, 2026, 20:15 | 69300 |
| May 2, 2026, 20:00 | 69700 |
| May 2, 2026, 19:45 | 69000 |
| May 2, 2026, 19:30 | 69000 |
| May 2, 2026, 19:15 | 69000 |
| May 2, 2026, 19:00 | 69000 |
| May 2, 2026, 18:45 | 69200 |
| May 2, 2026, 18:30 | 69100 |
| May 2, 2026, 18:15 | 69200 |
| May 2, 2026, 18:00 | 69100 |
| May 2, 2026, 17:45 | 69200 |
| May 2, 2026, 17:30 | 69100 |
| May 2, 2026, 17:15 | 69100 |
| May 2, 2026, 17:00 | 69100 |
| May 2, 2026, 16:45 | 69500 |
| May 2, 2026, 16:30 | 69100 |
| May 2, 2026, 16:15 | 69100 |
| May 2, 2026, 16:00 | 69200 |
| May 2, 2026, 15:45 | 69200 |
| May 2, 2026, 15:30 | 69200 |
| May 2, 2026, 15:15 | 69100 |
| May 2, 2026, 15:00 | 68900 |
| May 2, 2026, 14:45 | 68900 |
| May 2, 2026, 14:30 | 68900 |
| May 2, 2026, 14:15 | 68900 |
| May 2, 2026, 14:00 | 68900 |
| May 2, 2026, 13:45 | 68900 |
| May 2, 2026, 13:30 | 69000 |
| May 2, 2026, 13:15 | 69000 |
| May 2, 2026, 13:00 | 68100 |
| May 2, 2026, 12:45 | 68100 |
| May 2, 2026, 12:30 | 68100 |
| May 2, 2026, 12:15 | 68100 |
| May 2, 2026, 12:00 | 68100 |
| May 2, 2026, 11:45 | 68000 |
| May 2, 2026, 11:30 | 68100 |
| May 2, 2026, 11:15 | 68000 |
| May 2, 2026, 11:00 | 68000 |
| May 2, 2026, 10:45 | 68100 |
| May 2, 2026, 10:30 | 68000 |
| May 2, 2026, 10:15 | 68000 |
| May 2, 2026, 10:00 | 68200 |
| May 2, 2026, 09:45 | 68100 |
| May 2, 2026, 09:30 | 68000 |
| May 2, 2026, 09:15 | 68100 |
| May 2, 2026, 09:00 | 68100 |
| May 2, 2026, 08:45 | 68100 |
| May 2, 2026, 08:30 | 68000 |
| May 2, 2026, 08:15 | 68100 |
| May 2, 2026, 08:00 | 68000 |
| May 2, 2026, 07:45 | 67900 |
| May 2, 2026, 07:30 | 68000 |
| May 2, 2026, 07:15 | 68000 |
| May 2, 2026, 07:00 | 68000 |
| May 2, 2026, 06:45 | 68100 |
| May 2, 2026, 06:30 | 68000 |
| May 2, 2026, 06:15 | 68000 |
| May 2, 2026, 06:00 | 68000 |
| May 2, 2026, 05:45 | 68000 |
| May 2, 2026, 05:30 | 68000 |
| May 2, 2026, 05:15 | 68000 |
| May 2, 2026, 05:00 | 68000 |
| May 2, 2026, 04:45 | 67900 |
| May 2, 2026, 04:30 | 68000 |
| May 2, 2026, 04:15 | 67900 |
| May 2, 2026, 04:00 | 67900 |
| May 2, 2026, 03:45 | 68000 |
| May 2, 2026, 03:30 | 67800 |
| May 2, 2026, 03:15 | 67800 |
| May 2, 2026, 03:00 | 67900 |
| May 2, 2026, 02:45 | 67700 |
| May 2, 2026, 02:30 | 68600 |
| May 2, 2026, 02:15 | 68500 |
| May 2, 2026, 02:00 | 68600 |
| May 2, 2026, 01:45 | 68600 |
| May 2, 2026, 01:30 | 68500 |
| May 2, 2026, 01:15 | 68600 |
| May 2, 2026, 01:00 | 68500 |
| May 2, 2026, 00:45 | 68600 |
| May 2, 2026, 00:30 | 68700 |
| May 2, 2026, 00:15 | 68600 |
| May 1, 2026, 24:00 | 68700 |
| May 1, 2026, 23:45 | 68600 |
| May 1, 2026, 23:30 | 68500 |
| May 1, 2026, 23:15 | 68800 |
| May 1, 2026, 23:00 | 68700 |
| May 1, 2026, 22:45 | 68600 |
| May 1, 2026, 22:30 | 68600 |
| May 1, 2026, 22:15 | 68700 |
| May 1, 2026, 22:00 | 68700 |
| May 1, 2026, 21:45 | 68600 |
| May 1, 2026, 21:30 | 68700 |
| May 1, 2026, 21:15 | 68600 |
| May 1, 2026, 21:00 | 68800 |
| May 1, 2026, 20:45 | 68700 |
| May 1, 2026, 20:30 | 68900 |
| May 1, 2026, 20:15 | 68800 |
| May 1, 2026, 20:00 | 68700 |
| May 1, 2026, 19:45 | 68800 |
| May 1, 2026, 19:30 | 68800 |
| May 1, 2026, 19:15 | 68800 |
| May 1, 2026, 19:00 | 68700 |
| May 1, 2026, 18:45 | 68600 |
| May 1, 2026, 18:30 | 68900 |
| May 1, 2026, 18:15 | 68700 |
| May 1, 2026, 18:00 | 68600 |
| May 1, 2026, 17:45 | 68600 |
| May 1, 2026, 17:30 | 68500 |
| May 1, 2026, 17:15 | 68700 |
| May 1, 2026, 17:00 | 68700 |
| May 1, 2026, 16:45 | 68600 |
| May 1, 2026, 16:30 | 68600 |
| May 1, 2026, 16:15 | 68700 |
| May 1, 2026, 16:00 | 68700 |
| May 1, 2026, 15:45 | 68900 |
| May 1, 2026, 15:30 | 68500 |
| May 1, 2026, 15:15 | 68600 |
| May 1, 2026, 15:00 | 68400 |
| May 1, 2026, 14:45 | 68400 |
| May 1, 2026, 14:30 | 68500 |
| May 1, 2026, 14:15 | 68400 |
| May 1, 2026, 14:00 | 68300 |
| May 1, 2026, 13:45 | 68400 |
| May 1, 2026, 13:30 | 68300 |
| May 1, 2026, 13:15 | 68300 |
| May 1, 2026, 13:00 | 68500 |
| May 1, 2026, 12:45 | 68400 |
| May 1, 2026, 12:30 | 68700 |
| May 1, 2026, 12:15 | 68500 |
| May 1, 2026, 12:00 | 68300 |
| May 1, 2026, 11:45 | 68500 |
| May 1, 2026, 11:30 | 68300 |
| May 1, 2026, 11:15 | 68300 |
| May 1, 2026, 11:00 | 68300 |
| May 1, 2026, 10:45 | 68500 |
| May 1, 2026, 10:30 | 68400 |
| May 1, 2026, 10:15 | 68400 |
| May 1, 2026, 10:00 | 68400 |
| May 1, 2026, 09:45 | 68300 |
| May 1, 2026, 09:30 | 68400 |
| May 1, 2026, 09:15 | 68300 |
| May 1, 2026, 09:00 | 68300 |
| May 1, 2026, 08:45 | 68400 |
| May 1, 2026, 08:30 | 68300 |
| May 1, 2026, 08:15 | 68400 |
| May 1, 2026, 08:00 | 68400 |
| May 1, 2026, 07:45 | 68400 |
| May 1, 2026, 07:30 | 68300 |
| May 1, 2026, 07:15 | 68400 |
| May 1, 2026, 07:00 | 68400 |
| May 1, 2026, 06:45 | 68400 |
| May 1, 2026, 06:30 | 68300 |
| May 1, 2026, 06:15 | 68400 |
| May 1, 2026, 06:00 | 68400 |
| May 1, 2026, 05:45 | 68400 |
| May 1, 2026, 05:30 | 68300 |
| May 1, 2026, 05:15 | 68400 |
| May 1, 2026, 05:00 | 68400 |
| May 1, 2026, 04:45 | 68400 |
| May 1, 2026, 04:30 | 68500 |
| May 1, 2026, 04:15 | 68300 |
| May 1, 2026, 04:00 | 68400 |
| May 1, 2026, 03:45 | 68400 |
| May 1, 2026, 03:30 | 68500 |
| May 1, 2026, 03:15 | 68600 |
| May 1, 2026, 03:00 | 68500 |
| May 1, 2026, 02:45 | 68700 |
| May 1, 2026, 02:30 | 68800 |
| May 1, 2026, 02:15 | 68800 |
| May 1, 2026, 02:00 | 69000 |
| May 1, 2026, 01:45 | 69000 |
| May 1, 2026, 01:30 | 69100 |
| May 1, 2026, 01:15 | 69000 |
| May 1, 2026, 01:00 | 68900 |
| May 1, 2026, 00:45 | 69000 |
| May 1, 2026, 00:30 | 68700 |
| May 1, 2026, 00:15 | 68800 |
| April 30, 2026, 24:00 | 69000 |
| April 30, 2026, 23:45 | 68900 |
| April 30, 2026, 23:30 | 69000 |
| April 30, 2026, 23:15 | 68900 |
| April 30, 2026, 23:00 | 69000 |
| April 30, 2026, 22:45 | 69000 |
| April 30, 2026, 22:30 | 68900 |
| April 30, 2026, 22:15 | 68800 |
| April 30, 2026, 22:00 | 69000 |
| April 30, 2026, 21:45 | 69000 |
| April 30, 2026, 21:30 | 68900 |
| April 30, 2026, 21:15 | 68900 |
| April 30, 2026, 21:00 | 68900 |
| April 30, 2026, 20:45 | 68900 |
| April 30, 2026, 20:30 | 69000 |
| April 30, 2026, 20:15 | 69000 |
| April 30, 2026, 20:00 | 68900 |
| April 30, 2026, 19:45 | 69100 |
| April 30, 2026, 19:30 | 68800 |
| April 30, 2026, 19:15 | 69000 |
| April 30, 2026, 19:00 | 68500 |
| April 30, 2026, 18:45 | 68600 |
| April 30, 2026, 18:30 | 68700 |
| April 30, 2026, 18:15 | 68700 |
| April 30, 2026, 18:00 | 68900 |
| April 30, 2026, 17:45 | 68800 |
| April 30, 2026, 17:30 | 68800 |
| April 30, 2026, 17:15 | 68700 |
| April 30, 2026, 17:00 | 69000 |
| April 30, 2026, 16:45 | 69100 |
| April 30, 2026, 16:30 | 69000 |
| April 30, 2026, 16:15 | 69000 |
| April 30, 2026, 16:00 | 68900 |
| April 30, 2026, 15:45 | 68900 |
| April 30, 2026, 15:30 | 68800 |
| April 30, 2026, 15:15 | 68700 |
| April 30, 2026, 15:00 | 68700 |
| April 30, 2026, 14:45 | 68600 |
| April 30, 2026, 14:30 | 68700 |
| April 30, 2026, 14:15 | 68600 |
| April 30, 2026, 14:00 | 68700 |
| April 30, 2026, 13:45 | 68600 |
| April 30, 2026, 13:30 | 68600 |
| April 30, 2026, 13:15 | 68600 |
| April 30, 2026, 13:00 | 68600 |
| April 30, 2026, 12:45 | 68600 |
| April 30, 2026, 12:30 | 68600 |
| April 30, 2026, 12:15 | 68900 |
| April 30, 2026, 12:00 | 68700 |
| April 30, 2026, 11:45 | 68600 |
| April 30, 2026, 11:30 | 68800 |
| April 30, 2026, 11:15 | 68600 |
| April 30, 2026, 11:00 | 68400 |
| April 30, 2026, 10:45 | 68800 |
| April 30, 2026, 10:30 | 68000 |
| April 30, 2026, 10:15 | 68700 |
| April 30, 2026, 10:00 | 68600 |
| April 30, 2026, 09:45 | 68800 |
| April 30, 2026, 09:30 | 68500 |
| April 30, 2026, 09:15 | 68800 |
| April 30, 2026, 09:00 | 68700 |
| April 30, 2026, 08:45 | 68900 |
| April 30, 2026, 08:30 | 68900 |
| April 30, 2026, 08:15 | 68800 |
| April 30, 2026, 08:00 | 68800 |
| April 30, 2026, 07:45 | 68900 |
| April 30, 2026, 07:30 | 68700 |
| April 30, 2026, 07:15 | 68900 |
| April 30, 2026, 07:00 | 68800 |
| April 30, 2026, 06:45 | 68900 |
| April 30, 2026, 06:30 | 68900 |
| April 30, 2026, 06:15 | 68800 |
| April 30, 2026, 06:00 | 68900 |
| April 30, 2026, 05:45 | 68800 |
| April 30, 2026, 05:30 | 68900 |
| April 30, 2026, 05:15 | 68900 |
| April 30, 2026, 05:00 | 68900 |
| April 30, 2026, 04:45 | 68900 |
| April 30, 2026, 04:30 | 68900 |
| April 30, 2026, 04:15 | 69000 |
| April 30, 2026, 04:00 | 69000 |
| April 30, 2026, 03:45 | 69000 |
| April 30, 2026, 03:30 | 69000 |
| April 30, 2026, 03:15 | 69000 |
| April 30, 2026, 03:00 | 68800 |
| April 30, 2026, 02:45 | 68900 |
| April 30, 2026, 02:30 | 68900 |
| April 30, 2026, 02:15 | 68900 |
| April 30, 2026, 02:00 | 68900 |
| April 30, 2026, 01:45 | 69000 |
| April 30, 2026, 01:30 | 69000 |
| April 30, 2026, 01:15 | 69000 |
| April 30, 2026, 01:00 | 69000 |
| April 30, 2026, 00:45 | 69000 |
| April 30, 2026, 00:30 | 69000 |
| April 30, 2026, 00:15 | 69000 |
| April 29, 2026, 24:00 | 69100 |
| April 29, 2026, 23:45 | 69100 |
| April 29, 2026, 23:30 | 69300 |
| April 29, 2026, 23:15 | 69100 |
| April 29, 2026, 23:00 | 69300 |
| April 29, 2026, 22:45 | 69200 |
| April 29, 2026, 22:30 | 69400 |
| April 29, 2026, 22:15 | 69200 |
| April 29, 2026, 22:00 | 69100 |
| April 29, 2026, 21:45 | 69500 |
| April 29, 2026, 21:30 | 69500 |
| April 29, 2026, 21:15 | 69200 |
| April 29, 2026, 21:00 | 69200 |
| April 29, 2026, 20:45 | 69400 |
| April 29, 2026, 20:30 | 69300 |
| April 29, 2026, 20:15 | 69300 |
| April 29, 2026, 20:00 | 69100 |
| April 29, 2026, 19:45 | 69200 |
| April 29, 2026, 19:30 | 69700 |
| April 29, 2026, 19:15 | 69200 |
| April 29, 2026, 19:00 | 69300 |
| April 29, 2026, 18:45 | 69300 |
| April 29, 2026, 18:30 | 69700 |
| April 29, 2026, 18:15 | 69600 |
| April 29, 2026, 18:00 | 69700 |
| April 29, 2026, 17:45 | 69600 |
| April 29, 2026, 17:30 | 69700 |
| April 29, 2026, 17:15 | 69400 |
| April 29, 2026, 17:00 | 69700 |
| April 29, 2026, 16:45 | 69600 |
| April 29, 2026, 16:30 | 69300 |
| April 29, 2026, 16:15 | 69700 |
| April 29, 2026, 16:00 | 69900 |
| April 29, 2026, 15:45 | 69500 |
| April 29, 2026, 15:30 | 69800 |
| April 29, 2026, 15:15 | 69600 |
| April 29, 2026, 15:00 | 69500 |
| April 29, 2026, 14:45 | 69400 |
| April 29, 2026, 14:30 | 69700 |
| April 29, 2026, 14:15 | 69100 |
| April 29, 2026, 14:00 | 69700 |
| April 29, 2026, 13:45 | 69700 |
| April 29, 2026, 13:30 | 69700 |
| April 29, 2026, 13:15 | 69500 |
| April 29, 2026, 13:00 | 69700 |
| April 29, 2026, 12:45 | 69700 |
| April 29, 2026, 12:30 | 69500 |
| April 29, 2026, 12:15 | 69700 |
| April 29, 2026, 12:00 | 69700 |
| April 29, 2026, 11:45 | 69700 |
| April 29, 2026, 11:30 | 69700 |
| April 29, 2026, 11:15 | 69900 |
| April 29, 2026, 11:00 | 69800 |
| April 29, 2026, 10:45 | 69800 |
| April 29, 2026, 10:30 | 69800 |
| April 29, 2026, 10:15 | 69900 |
| April 29, 2026, 10:00 | 70100 |
| April 29, 2026, 09:45 | 70300 |
| April 29, 2026, 09:30 | 70100 |
| April 29, 2026, 09:15 | 70200 |
| April 29, 2026, 09:00 | 70400 |
| April 29, 2026, 08:45 | 70300 |
| April 29, 2026, 08:30 | 70300 |
| April 29, 2026, 08:15 | 70500 |
| April 29, 2026, 08:00 | 70400 |
| April 29, 2026, 07:45 | 70500 |
| April 29, 2026, 07:30 | 70600 |
| April 29, 2026, 07:15 | 70700 |
| April 29, 2026, 07:00 | 70800 |
| April 29, 2026, 06:45 | 70900 |
| April 29, 2026, 06:30 | 71000 |
| April 29, 2026, 06:15 | 71100 |
| April 29, 2026, 06:00 | 71200 |
| April 29, 2026, 05:45 | 71500 |
| April 29, 2026, 05:30 | 71400 |
| April 29, 2026, 05:15 | M |
| April 29, 2026, 05:00 | M |
| April 29, 2026, 04:45 | M |
| April 29, 2026, 04:30 | M |
| April 29, 2026, 04:15 | 67500 |
| April 29, 2026, 04:00 | 67600 |
| April 29, 2026, 03:45 | 67600 |
| April 29, 2026, 03:30 | 67600 |
| April 29, 2026, 03:15 | 67700 |
| April 29, 2026, 03:00 | 67800 |
| April 29, 2026, 02:45 | 67700 |
| April 29, 2026, 02:30 | 67500 |
| April 29, 2026, 02:15 | 67600 |
| April 29, 2026, 02:00 | 67500 |
| April 29, 2026, 01:45 | 67500 |
| April 29, 2026, 01:30 | 67500 |
| April 29, 2026, 01:15 | 67500 |
| April 29, 2026, 01:00 | 67500 |
| April 29, 2026, 00:45 | 67500 |
| April 29, 2026, 00:30 | 67600 |
| April 29, 2026, 00:15 | 67600 |
| April 28, 2026, 24:00 | 67600 |
| April 28, 2026, 23:45 | 67500 |
| April 28, 2026, 23:30 | 67500 |
| April 28, 2026, 23:15 | 67600 |
| April 28, 2026, 23:00 | 67500 |
| April 28, 2026, 22:45 | 67600 |
| April 28, 2026, 22:30 | 67800 |
| April 28, 2026, 22:15 | 67500 |
| April 28, 2026, 22:00 | 67800 |
| April 28, 2026, 21:45 | 67800 |
| April 28, 2026, 21:30 | 67900 |
| April 28, 2026, 21:15 | 67700 |
| April 28, 2026, 21:00 | 67500 |
| April 28, 2026, 20:45 | 67500 |
| April 28, 2026, 20:30 | 67700 |
| April 28, 2026, 20:15 | 67900 |
| April 28, 2026, 20:00 | 67700 |
| April 28, 2026, 19:45 | 67900 |
| April 28, 2026, 19:30 | 67700 |
| April 28, 2026, 19:15 | 67800 |
| April 28, 2026, 19:00 | 67600 |
| April 28, 2026, 18:45 | 68000 |
| April 28, 2026, 18:30 | 67800 |
| April 28, 2026, 18:15 | 67900 |
| April 28, 2026, 18:00 | 67900 |
| April 28, 2026, 17:45 | 67900 |
| April 28, 2026, 17:30 | 67900 |
| April 28, 2026, 17:15 | 68200 |
| April 28, 2026, 17:00 | 68000 |
| April 28, 2026, 16:45 | 68200 |
| April 28, 2026, 16:30 | 68200 |
| April 28, 2026, 16:15 | 68200 |
| April 28, 2026, 16:00 | 68300 |
| April 28, 2026, 15:45 | 68300 |
| April 28, 2026, 15:30 | 68600 |
| April 28, 2026, 15:15 | 68500 |
| April 28, 2026, 15:00 | 68500 |
| April 28, 2026, 14:45 | 68600 |
| April 28, 2026, 14:30 | 68700 |
| April 28, 2026, 14:15 | 68700 |
| April 28, 2026, 14:00 | 68800 |
| April 28, 2026, 13:45 | 69200 |
| April 28, 2026, 13:30 | 69200 |
| April 28, 2026, 13:15 | 67800 |
| April 28, 2026, 13:00 | 64300 |
| April 28, 2026, 12:45 | 64300 |
| April 28, 2026, 12:30 | 64200 |
| April 28, 2026, 12:15 | 64200 |
| April 28, 2026, 12:00 | 64100 |
| April 28, 2026, 11:45 | 64100 |
| April 28, 2026, 11:30 | 64100 |
| April 28, 2026, 11:15 | 64100 |
| April 28, 2026, 11:00 | 64100 |
| April 28, 2026, 10:45 | 64100 |
| April 28, 2026, 10:30 | 63900 |
| April 28, 2026, 10:15 | 64000 |
| April 28, 2026, 10:00 | 63900 |
| April 28, 2026, 09:45 | 64100 |
| April 28, 2026, 09:30 | 64000 |
| April 28, 2026, 09:15 | 63800 |
| April 28, 2026, 09:00 | 63900 |
| April 28, 2026, 08:45 | 63700 |
| April 28, 2026, 08:30 | 63900 |
| April 28, 2026, 08:15 | 63700 |
| April 28, 2026, 08:00 | 63700 |
| April 28, 2026, 07:45 | 63600 |
| April 28, 2026, 07:30 | 63600 |
| April 28, 2026, 07:15 | 63600 |
| April 28, 2026, 07:00 | 63500 |
| April 28, 2026, 06:45 | 63600 |
| April 28, 2026, 06:30 | 63200 |
| April 28, 2026, 06:15 | 63400 |
| April 28, 2026, 06:00 | 63100 |
| April 28, 2026, 05:45 | 63300 |
| April 28, 2026, 05:30 | 63100 |
| April 28, 2026, 05:15 | 63200 |
| April 28, 2026, 05:00 | 63100 |
| April 28, 2026, 04:45 | 63100 |
| April 28, 2026, 04:30 | 63100 |
| April 28, 2026, 04:15 | 63000 |
| April 28, 2026, 04:00 | 62900 |
| April 28, 2026, 03:45 | 62800 |
| April 28, 2026, 03:30 | 62800 |
| April 28, 2026, 03:15 | 62800 |
| April 28, 2026, 03:00 | 62900 |
| April 28, 2026, 02:45 | 62600 |
| April 28, 2026, 02:30 | 62800 |
| April 28, 2026, 02:15 | 62800 |
| April 28, 2026, 02:00 | 62600 |
| April 28, 2026, 01:45 | 62700 |
| April 28, 2026, 01:30 | 62600 |
| April 28, 2026, 01:15 | 62800 |
| April 28, 2026, 01:00 | 62800 |
| April 28, 2026, 00:45 | 62600 |
| April 28, 2026, 00:30 | 62600 |
| April 28, 2026, 00:15 | 62600 |
| April 27, 2026, 24:00 | 62600 |
| April 27, 2026, 23:45 | 62700 |
| April 27, 2026, 23:30 | 62600 |
| April 27, 2026, 23:15 | 62700 |
| April 27, 2026, 23:00 | 62800 |
| April 27, 2026, 22:45 | 62800 |
| April 27, 2026, 22:30 | 62900 |
| April 27, 2026, 22:15 | 62800 |
| April 27, 2026, 22:00 | 62800 |
| April 27, 2026, 21:45 | 62600 |
| April 27, 2026, 21:30 | 62900 |
| April 27, 2026, 21:15 | 62300 |
| April 27, 2026, 21:00 | 62700 |
| April 27, 2026, 20:45 | 62600 |
| April 27, 2026, 20:30 | 62600 |
| April 27, 2026, 20:15 | 62100 |
| April 27, 2026, 20:00 | 62600 |
| April 27, 2026, 19:45 | 62400 |
| April 27, 2026, 19:30 | 62200 |
| April 27, 2026, 19:15 | 62500 |
| April 27, 2026, 19:00 | 62600 |
| April 27, 2026, 18:45 | 62600 |
| April 27, 2026, 18:30 | 62500 |
| April 27, 2026, 18:15 | 62800 |
| April 27, 2026, 18:00 | 62800 |
| April 27, 2026, 17:45 | 62800 |
| April 27, 2026, 17:30 | 63100 |
| April 27, 2026, 17:15 | 63200 |
| April 27, 2026, 17:00 | 63400 |
| April 27, 2026, 16:45 | 63500 |
| April 27, 2026, 16:30 | 63400 |
| April 27, 2026, 16:15 | 63600 |
| Date/Time (UTC) | LockDam_08 Temp-Air F | LockDam_08 Temp-Water F | LockDam_08 Speed-Wind mph | LockDam_08 Dir-Wind deg |
|---|---|---|---|---|
| May 4, 2026, 15:15 | 71 | 59 | 3 | 205 |
| May 4, 2026, 15:00 | 70 | 59 | 3 | 205 |
| May 4, 2026, 14:45 | 69 | 59 | 3 | 205 |
| May 4, 2026, 14:30 | 68 | 59 | 3 | 205 |
| May 4, 2026, 14:15 | 67 | 59 | 3 | 205 |
| May 4, 2026, 14:00 | 64 | 59 | 3 | 205 |
| May 4, 2026, 13:45 | 62 | 59 | 3 | 205 |
| May 4, 2026, 13:30 | 60 | 59 | 3 | 205 |
| May 4, 2026, 13:15 | 59 | 59 | 3 | 205 |
| May 4, 2026, 13:00 | 58 | 59 | 3 | 205 |
| May 4, 2026, 12:45 | 57 | 59 | 3 | 205 |
| May 4, 2026, 12:30 | 56 | 59 | 3 | 205 |
| May 4, 2026, 12:15 | 53 | 59 | 3 | 205 |
| May 4, 2026, 12:00 | 52 | 59 | 3 | 205 |
| May 4, 2026, 11:45 | 51 | 59 | 3 | 205 |
| May 4, 2026, 11:30 | 50 | 59 | 3 | 205 |
| May 4, 2026, 11:15 | 50 | 59 | 3 | 205 |
| May 4, 2026, 11:00 | 50 | 59 | 3 | 205 |
| May 4, 2026, 10:45 | 51 | 59 | 3 | 205 |
| May 4, 2026, 10:30 | 51 | 60 | 3 | 205 |
| May 4, 2026, 10:15 | 50 | 60 | 3 | 205 |
| May 4, 2026, 10:00 | 50 | 60 | 3 | 205 |
| May 4, 2026, 09:45 | 49 | 60 | 3 | 205 |
| May 4, 2026, 09:30 | 49 | 60 | 3 | 205 |
| May 4, 2026, 09:15 | 49 | 60 | 3 | 205 |
| May 4, 2026, 09:00 | 50 | 60 | 3 | 205 |
| May 4, 2026, 08:45 | 50 | 60 | 3 | 205 |
| May 4, 2026, 08:30 | 50 | 60 | 3 | 205 |
| May 4, 2026, 08:15 | 50 | 60 | 3 | 205 |
| May 4, 2026, 08:00 | 51 | 60 | 3 | 205 |
| May 4, 2026, 07:45 | 51 | 60 | 3 | 205 |
| May 4, 2026, 07:30 | 51 | 60 | 3 | 205 |
| May 4, 2026, 07:15 | 51 | 60 | 3 | 205 |
| May 4, 2026, 07:00 | 52 | 60 | 3 | 205 |
| May 4, 2026, 06:45 | 52 | 60 | 3 | 205 |
| May 4, 2026, 06:30 | 53 | 60 | 3 | 205 |
| May 4, 2026, 06:15 | 54 | 60 | 3 | 205 |
| May 4, 2026, 06:00 | 54 | 60 | 3 | 205 |
| May 4, 2026, 05:45 | 55 | 60 | 3 | 205 |
| May 4, 2026, 05:30 | 55 | 60 | 3 | 205 |
| May 4, 2026, 05:15 | 56 | 59 | 3 | 205 |
| May 4, 2026, 05:00 | 56 | 59 | 3 | 205 |
| May 4, 2026, 04:45 | 56 | 60 | 3 | 205 |
| May 4, 2026, 04:30 | 56 | 60 | 3 | 205 |
| May 4, 2026, 04:15 | 55 | 60 | 3 | 205 |
| May 4, 2026, 04:00 | 56 | 60 | 3 | 205 |
| May 4, 2026, 03:45 | 57 | 59 | 3 | 205 |
| May 4, 2026, 03:30 | 58 | 59 | 3 | 205 |
| May 4, 2026, 03:15 | 59 | 59 | 3 | 205 |
| May 4, 2026, 03:00 | 59 | 59 | 3 | 205 |
| May 4, 2026, 02:45 | 59 | 59 | 3 | 205 |
| May 4, 2026, 02:30 | 61 | 59 | 3 | 205 |
| May 4, 2026, 02:15 | 62 | 59 | 3 | 205 |
| May 4, 2026, 02:00 | 65 | 59 | 3 | 205 |
| May 4, 2026, 01:45 | 66 | 59 | 3 | 205 |
| May 4, 2026, 01:30 | 67 | 59 | 3 | 205 |
| May 4, 2026, 01:15 | 68 | 59 | 3 | 205 |
| May 4, 2026, 01:00 | 71 | 59 | 3 | 205 |
| May 4, 2026, 00:45 | 73 | 59 | 3 | 205 |
| May 4, 2026, 00:30 | 74 | 59 | 3 | 205 |
| May 4, 2026, 00:15 | 73 | 58 | 3 | 205 |
| May 3, 2026, 24:00 | 73 | 59 | 3 | 205 |
| May 3, 2026, 23:45 | 73 | 58 | 3 | 205 |
| May 3, 2026, 23:30 | 72 | 58 | 3 | 205 |
| May 3, 2026, 23:15 | 72 | 58 | 3 | 205 |
| May 3, 2026, 23:00 | 71 | 58 | 3 | 205 |
| May 3, 2026, 22:45 | 72 | 58 | 3 | 205 |
| May 3, 2026, 22:30 | 71 | 58 | 3 | 205 |
| May 3, 2026, 22:15 | 71 | 58 | 3 | 205 |
| May 3, 2026, 22:00 | 72 | 58 | 3 | 205 |
| May 3, 2026, 21:45 | 70 | 58 | 3 | 205 |
| May 3, 2026, 21:30 | 70 | 57 | 3 | 205 |
| May 3, 2026, 21:15 | 71 | 57 | 3 | 205 |
| May 3, 2026, 21:00 | 71 | 57 | 3 | 205 |
| May 3, 2026, 20:45 | 71 | 57 | 3 | 205 |
| May 3, 2026, 20:30 | 71 | 57 | 3 | 205 |
| May 3, 2026, 20:15 | 70 | 57 | 3 | 205 |
| May 3, 2026, 20:00 | 70 | 57 | 3 | 205 |
| May 3, 2026, 19:45 | 71 | 57 | 3 | 205 |
| May 3, 2026, 19:30 | 70 | 57 | 3 | 205 |
| May 3, 2026, 19:15 | 71 | 57 | 3 | 205 |
| May 3, 2026, 19:00 | 71 | 57 | 3 | 205 |
| May 3, 2026, 18:45 | 70 | 57 | 3 | 205 |
| May 3, 2026, 18:30 | 70 | 57 | 3 | 205 |
| May 3, 2026, 18:15 | 69 | 57 | 3 | 205 |
| May 3, 2026, 18:00 | 69 | 57 | 3 | 205 |
| May 3, 2026, 17:45 | 68 | 57 | 3 | 205 |
| May 3, 2026, 17:30 | 67 | 57 | 3 | 205 |
| May 3, 2026, 17:15 | 67 | 57 | 3 | 205 |
| May 3, 2026, 17:00 | 66 | 57 | 3 | 205 |
| May 3, 2026, 16:45 | 66 | 57 | 3 | 205 |
| May 3, 2026, 16:30 | 65 | 57 | 3 | 205 |
| May 3, 2026, 16:15 | 64 | 57 | 3 | 205 |
| May 3, 2026, 16:00 | 63 | 57 | 3 | 205 |
| May 3, 2026, 15:45 | 63 | 57 | 3 | 205 |
| May 3, 2026, 15:30 | 62 | 57 | 3 | 205 |
| May 3, 2026, 15:15 | 62 | 57 | 3 | 205 |
| May 3, 2026, 15:00 | 61 | 57 | 3 | 205 |
| May 3, 2026, 14:45 | 61 | 57 | 3 | 205 |
| May 3, 2026, 14:30 | 60 | 57 | 3 | 205 |
| May 3, 2026, 14:15 | 60 | 57 | 3 | 205 |
| May 3, 2026, 14:00 | 59 | 57 | 3 | 205 |
| May 3, 2026, 13:45 | 57 | 58 | 3 | 205 |
| May 3, 2026, 13:30 | 56 | 58 | 3 | 205 |
| May 3, 2026, 13:15 | 56 | 58 | 3 | 205 |
| May 3, 2026, 13:00 | 56 | 58 | 3 | 205 |
| May 3, 2026, 12:45 | 56 | 58 | 3 | 205 |
| May 3, 2026, 12:30 | 56 | 58 | 3 | 205 |
| May 3, 2026, 12:15 | 55 | 58 | 3 | 205 |
| May 3, 2026, 12:00 | 54 | 58 | 3 | 205 |
| May 3, 2026, 11:45 | 54 | 58 | 3 | 205 |
| May 3, 2026, 11:30 | 55 | 58 | 3 | 205 |
| May 3, 2026, 11:15 | 55 | 58 | 3 | 205 |
| May 3, 2026, 11:00 | 55 | 58 | 3 | 205 |
| May 3, 2026, 10:45 | 55 | 58 | 3 | 205 |
| May 3, 2026, 10:30 | 55 | 58 | 3 | 205 |
| May 3, 2026, 10:15 | 55 | 58 | 3 | 205 |
| May 3, 2026, 10:00 | 56 | 58 | 3 | 205 |
| May 3, 2026, 09:45 | 56 | 58 | 3 | 205 |
| May 3, 2026, 09:30 | 56 | 58 | 3 | 205 |
| May 3, 2026, 09:15 | 55 | 58 | 3 | 205 |
| May 3, 2026, 09:00 | 55 | 58 | 3 | 205 |
| May 3, 2026, 08:45 | 55 | 58 | 3 | 205 |
| May 3, 2026, 08:30 | 55 | 58 | 3 | 205 |
| May 3, 2026, 08:15 | 55 | 58 | 3 | 205 |
| May 3, 2026, 08:00 | 55 | 58 | 3 | 205 |
| May 3, 2026, 07:45 | 55 | 58 | 3 | 205 |
| May 3, 2026, 07:30 | 55 | 58 | 3 | 205 |
| May 3, 2026, 07:15 | 55 | 58 | 3 | 205 |
| May 3, 2026, 07:00 | 55 | 58 | 3 | 205 |
| May 3, 2026, 06:45 | 55 | 58 | 3 | 205 |
| May 3, 2026, 06:30 | 55 | 58 | 3 | 205 |
| May 3, 2026, 06:15 | 55 | 58 | 3 | 205 |
| May 3, 2026, 06:00 | 55 | 58 | 3 | 205 |
| May 3, 2026, 05:45 | 55 | 58 | 3 | 205 |
| May 3, 2026, 05:30 | 56 | 58 | 3 | 205 |
| May 3, 2026, 05:15 | 56 | 58 | 3 | 205 |
| May 3, 2026, 05:00 | 56 | 58 | 3 | 205 |
| May 3, 2026, 04:45 | 56 | 58 | 3 | 205 |
| May 3, 2026, 04:30 | 56 | 58 | 3 | 205 |
| May 3, 2026, 04:15 | 57 | 58 | 3 | 205 |
| May 3, 2026, 04:00 | 56 | 58 | 3 | 205 |
| May 3, 2026, 03:45 | 57 | 58 | 3 | 205 |
| May 3, 2026, 03:30 | 57 | 58 | 3 | 205 |
| May 3, 2026, 03:15 | 57 | 58 | 3 | 205 |
| May 3, 2026, 03:00 | 57 | 58 | 3 | 205 |
| May 3, 2026, 02:45 | 58 | 58 | 3 | 205 |
| May 3, 2026, 02:30 | 58 | 58 | 3 | 205 |
| May 3, 2026, 02:15 | 59 | 58 | 3 | 205 |
| May 3, 2026, 02:00 | 59 | 58 | 3 | 205 |
| May 3, 2026, 01:45 | 59 | 58 | 3 | 205 |
| May 3, 2026, 01:30 | 60 | 58 | 3 | 205 |
| May 3, 2026, 01:15 | 60 | 57 | 3 | 205 |
| May 3, 2026, 01:00 | 60 | 57 | 3 | 205 |
| May 3, 2026, 00:45 | 61 | 57 | 3 | 205 |
| May 3, 2026, 00:30 | 62 | 57 | 3 | 205 |
| May 3, 2026, 00:15 | 63 | 57 | 3 | 205 |
| May 2, 2026, 24:00 | 65 | 57 | 3 | 205 |
| May 2, 2026, 23:45 | 65 | 57 | 3 | 205 |
| May 2, 2026, 23:30 | 65 | 57 | 3 | 205 |
| May 2, 2026, 23:15 | 65 | 57 | 3 | 205 |
| May 2, 2026, 23:00 | 64 | 57 | 3 | 205 |
| May 2, 2026, 22:45 | 64 | 57 | 3 | 205 |
| May 2, 2026, 22:30 | 65 | 57 | 3 | 205 |
| May 2, 2026, 22:15 | 62 | 57 | 3 | 205 |
| May 2, 2026, 22:00 | 63 | 57 | 3 | 205 |
| May 2, 2026, 21:45 | 64 | 57 | 3 | 205 |
| May 2, 2026, 21:30 | 63 | 57 | 3 | 205 |
| May 2, 2026, 21:15 | 62 | 57 | 3 | 205 |
| May 2, 2026, 21:00 | 62 | 57 | 3 | 205 |
| May 2, 2026, 20:45 | 63 | 57 | 3 | 205 |
| May 2, 2026, 20:30 | 61 | 57 | 3 | 205 |
| May 2, 2026, 20:15 | 61 | 57 | 3 | 205 |
| May 2, 2026, 20:00 | 60 | 57 | 3 | 205 |
| May 2, 2026, 19:45 | 62 | 57 | 3 | 205 |
| May 2, 2026, 19:30 | 62 | 57 | 3 | 205 |
| May 2, 2026, 19:15 | 60 | 57 | 3 | 205 |
| May 2, 2026, 19:00 | 61 | 57 | 3 | 205 |
| May 2, 2026, 18:45 | 59 | 56 | 3 | 205 |
| May 2, 2026, 18:30 | 60 | 57 | 3 | 205 |
| May 2, 2026, 18:15 | 59 | 56 | 3 | 205 |
| May 2, 2026, 18:00 | 59 | 56 | 3 | 205 |
| May 2, 2026, 17:45 | 57 | 57 | 3 | 205 |
| May 2, 2026, 17:30 | 56 | 57 | 3 | 205 |
| May 2, 2026, 17:15 | 57 | 57 | 3 | 205 |
| May 2, 2026, 17:00 | 57 | 57 | 3 | 205 |
| May 2, 2026, 16:45 | 55 | 57 | 3 | 205 |
| May 2, 2026, 16:30 | 55 | 57 | 3 | 205 |
| May 2, 2026, 16:15 | 57 | 57 | 3 | 205 |
| May 2, 2026, 16:00 | 55 | 57 | 3 | 205 |
| May 2, 2026, 15:45 | 54 | 57 | 3 | 205 |
| May 2, 2026, 15:30 | 54 | 57 | 3 | 205 |
| May 2, 2026, 15:15 | 53 | 57 | 3 | 205 |
| May 2, 2026, 15:00 | 52 | 57 | 3 | 205 |
| May 2, 2026, 14:45 | 50 | 57 | 3 | 205 |
| May 2, 2026, 14:30 | 49 | 57 | 3 | 205 |
| May 2, 2026, 14:15 | 47 | 57 | 3 | 205 |
| May 2, 2026, 14:00 | 45 | 57 | 3 | 205 |
| May 2, 2026, 13:45 | 43 | 57 | 3 | 205 |
| May 2, 2026, 13:30 | 41 | 57 | 3 | 205 |
| May 2, 2026, 13:15 | 40 | 57 | 3 | 205 |
| May 2, 2026, 13:00 | 39 | 57 | 3 | 205 |
| May 2, 2026, 12:45 | 38 | 57 | 3 | 205 |
| May 2, 2026, 12:30 | 38 | 57 | 3 | 205 |
| May 2, 2026, 12:15 | 37 | 57 | 3 | 205 |
| May 2, 2026, 12:00 | 37 | 57 | 3 | 205 |
| May 2, 2026, 11:45 | 37 | 57 | 3 | 205 |
| May 2, 2026, 11:30 | 37 | 57 | 3 | 205 |
| May 2, 2026, 11:15 | 36 | 57 | 3 | 205 |
| May 2, 2026, 11:00 | 37 | 57 | 3 | 205 |
| May 2, 2026, 10:45 | 38 | 57 | 3 | 205 |
| May 2, 2026, 10:30 | 38 | 57 | 3 | 205 |
| May 2, 2026, 10:15 | 38 | 57 | 3 | 205 |
| May 2, 2026, 10:00 | 38 | 57 | 3 | 205 |
| May 2, 2026, 09:45 | 37 | 57 | 3 | 205 |
| May 2, 2026, 09:30 | 36 | 57 | 3 | 205 |
| May 2, 2026, 09:15 | 37 | 57 | 3 | 205 |
| May 2, 2026, 09:00 | 37 | 57 | 3 | 205 |
| May 2, 2026, 08:45 | 38 | 57 | 3 | 205 |
| May 2, 2026, 08:30 | 38 | 57 | 3 | 205 |
| May 2, 2026, 08:15 | 39 | 57 | 3 | 205 |
| May 2, 2026, 08:00 | 39 | 57 | 3 | 205 |
| May 2, 2026, 07:45 | 39 | 57 | 3 | 205 |
| May 2, 2026, 07:30 | 40 | 57 | 3 | 205 |
| May 2, 2026, 07:15 | 40 | 57 | 3 | 205 |
| May 2, 2026, 07:00 | 40 | 57 | 3 | 205 |
| May 2, 2026, 06:45 | 39 | 57 | 3 | 205 |
| May 2, 2026, 06:30 | 39 | 57 | 3 | 205 |
| May 2, 2026, 06:15 | 39 | 57 | 3 | 205 |
| May 2, 2026, 06:00 | 40 | 57 | 3 | 205 |
| May 2, 2026, 05:45 | 40 | 57 | 3 | 205 |
| May 2, 2026, 05:30 | 41 | 57 | 3 | 205 |
| May 2, 2026, 05:15 | 41 | 57 | 3 | 205 |
| May 2, 2026, 05:00 | 42 | 57 | 3 | 205 |
| May 2, 2026, 04:45 | 42 | 57 | 3 | 205 |
| May 2, 2026, 04:30 | 43 | 57 | 3 | 205 |
| May 2, 2026, 04:15 | 43 | 57 | 3 | 205 |
| May 2, 2026, 04:00 | 44 | 57 | 3 | 205 |
| May 2, 2026, 03:45 | 44 | 57 | 3 | 205 |
| May 2, 2026, 03:30 | 44 | 57 | 3 | 205 |
| May 2, 2026, 03:15 | 45 | 57 | 3 | 205 |
| May 2, 2026, 03:00 | 46 | 57 | 3 | 205 |
| May 2, 2026, 02:45 | 47 | 57 | 3 | 205 |
| May 2, 2026, 02:30 | 48 | 57 | 3 | 205 |
| May 2, 2026, 02:15 | 48 | 57 | 3 | 205 |
| May 2, 2026, 02:00 | 48 | 57 | 3 | 205 |
| May 2, 2026, 01:45 | 49 | 57 | 3 | 205 |
| May 2, 2026, 01:30 | 50 | 57 | 3 | 205 |
| May 2, 2026, 01:15 | 51 | 57 | 3 | 205 |
| May 2, 2026, 01:00 | 51 | 57 | 3 | 205 |
| May 2, 2026, 00:45 | 52 | 57 | 3 | 205 |
| May 2, 2026, 00:30 | 52 | 57 | 3 | 205 |
| May 2, 2026, 00:15 | 52 | 57 | 3 | 205 |
| May 1, 2026, 24:00 | 52 | 57 | 3 | 205 |
| May 1, 2026, 23:45 | 52 | 56 | 3 | 205 |
| May 1, 2026, 23:30 | 52 | 56 | 3 | 205 |
| May 1, 2026, 23:15 | 52 | 56 | 3 | 205 |
| May 1, 2026, 23:00 | 52 | 56 | 3 | 205 |
| May 1, 2026, 22:45 | 52 | 56 | 3 | 205 |
| May 1, 2026, 22:30 | 52 | 56 | 3 | 205 |
| May 1, 2026, 22:15 | 52 | 56 | 3 | 205 |
| May 1, 2026, 22:00 | 51 | 56 | 3 | 205 |
| May 1, 2026, 21:45 | 51 | 56 | 3 | 205 |
| May 1, 2026, 21:30 | 52 | 56 | 3 | 205 |
| May 1, 2026, 21:15 | 51 | 56 | 3 | 205 |
| May 1, 2026, 21:00 | 51 | 56 | 3 | 205 |
| May 1, 2026, 20:45 | 51 | 56 | 3 | 205 |
| May 1, 2026, 20:30 | 51 | 56 | 3 | 205 |
| May 1, 2026, 20:15 | 51 | 56 | 3 | 205 |
| May 1, 2026, 20:00 | 51 | 56 | 3 | 205 |
| May 1, 2026, 19:45 | 50 | 56 | 3 | 205 |
| May 1, 2026, 19:30 | 50 | 56 | 3 | 205 |
| May 1, 2026, 19:15 | 51 | 56 | 3 | 205 |
| May 1, 2026, 19:00 | 49 | 56 | 3 | 205 |
| May 1, 2026, 18:45 | 49 | 56 | 3 | 205 |
| May 1, 2026, 18:30 | 49 | 56 | 3 | 205 |
| May 1, 2026, 18:15 | 49 | 56 | 3 | 205 |
| May 1, 2026, 18:00 | 49 | 56 | 3 | 205 |
| May 1, 2026, 17:45 | 48 | 56 | 3 | 205 |
| May 1, 2026, 17:30 | 49 | 56 | 3 | 205 |
| May 1, 2026, 17:15 | 49 | 56 | 3 | 205 |
| May 1, 2026, 17:00 | 49 | 56 | 3 | 205 |
| May 1, 2026, 16:45 | 48 | 56 | 3 | 205 |
| May 1, 2026, 16:30 | 47 | 56 | 3 | 205 |
| May 1, 2026, 16:15 | 47 | 56 | 3 | 205 |
| May 1, 2026, 16:00 | 46 | 56 | 3 | 205 |
| May 1, 2026, 15:45 | 46 | 56 | 3 | 205 |
| May 1, 2026, 15:30 | 46 | 56 | 3 | 205 |
| May 1, 2026, 15:15 | 46 | 56 | 3 | 205 |
| May 1, 2026, 15:00 | 46 | 57 | 3 | 205 |
| May 1, 2026, 14:45 | 45 | 57 | 3 | 205 |
| May 1, 2026, 14:30 | 44 | 57 | 3 | 205 |
| May 1, 2026, 14:15 | 43 | 57 | 3 | 205 |
| May 1, 2026, 14:00 | 43 | 57 | 3 | 205 |
| May 1, 2026, 13:45 | 42 | 57 | 3 | 205 |
| May 1, 2026, 13:30 | 41 | 57 | 3 | 205 |
| May 1, 2026, 13:15 | 40 | 57 | 3 | 205 |
| May 1, 2026, 13:00 | 39 | 57 | 3 | 205 |
| May 1, 2026, 12:45 | 39 | 57 | 3 | 205 |
| May 1, 2026, 12:30 | 38 | 57 | 3 | 205 |
| May 1, 2026, 12:15 | 37 | 57 | 3 | 205 |
| May 1, 2026, 12:00 | 36 | 57 | 3 | 205 |
| May 1, 2026, 11:45 | 36 | 57 | 3 | 205 |
| May 1, 2026, 11:30 | 35 | 57 | 3 | 205 |
| May 1, 2026, 11:15 | 36 | 57 | 3 | 205 |
| May 1, 2026, 11:00 | 36 | 57 | 3 | 205 |
| May 1, 2026, 10:45 | 36 | 57 | 3 | 205 |
| May 1, 2026, 10:30 | 37 | 57 | 3 | 205 |
| May 1, 2026, 10:15 | 37 | 57 | 3 | 205 |
| May 1, 2026, 10:00 | 37 | 57 | 3 | 205 |
| May 1, 2026, 09:45 | 37 | 57 | 3 | 205 |
| May 1, 2026, 09:30 | 38 | 57 | 3 | 205 |
| May 1, 2026, 09:15 | 38 | 57 | 3 | 205 |
| May 1, 2026, 09:00 | 37 | 57 | 3 | 205 |
| May 1, 2026, 08:45 | 38 | 57 | 3 | 205 |
| May 1, 2026, 08:30 | 38 | 57 | 3 | 205 |
| May 1, 2026, 08:15 | 38 | 57 | 3 | 205 |
| May 1, 2026, 08:00 | 37 | 57 | 3 | 205 |
| May 1, 2026, 07:45 | 37 | 57 | 3 | 205 |
| May 1, 2026, 07:30 | 37 | 57 | 3 | 205 |
| May 1, 2026, 07:15 | 37 | 57 | 3 | 205 |
| May 1, 2026, 07:00 | 38 | 57 | 3 | 205 |
| May 1, 2026, 06:45 | 38 | 57 | 3 | 205 |
| May 1, 2026, 06:30 | 39 | 57 | 3 | 205 |
| May 1, 2026, 06:15 | 39 | 57 | 3 | 205 |
| May 1, 2026, 06:00 | 40 | 57 | 3 | 205 |
| May 1, 2026, 05:45 | 40 | 57 | 3 | 205 |
| May 1, 2026, 05:30 | 41 | 57 | 3 | 205 |
| May 1, 2026, 05:15 | 42 | 57 | 3 | 205 |
| May 1, 2026, 05:00 | 42 | 57 | 3 | 205 |
| May 1, 2026, 04:45 | 44 | 57 | 3 | 205 |
| May 1, 2026, 04:30 | 43 | 57 | 3 | 205 |
| May 1, 2026, 04:15 | 42 | 57 | 3 | 205 |
| May 1, 2026, 04:00 | 43 | 57 | 3 | 205 |
| May 1, 2026, 03:45 | 45 | 57 | 3 | 205 |
| May 1, 2026, 03:30 | 45 | 57 | 3 | 205 |
| May 1, 2026, 03:15 | 46 | 57 | 3 | 205 |
| May 1, 2026, 03:00 | 47 | 57 | 3 | 205 |
| May 1, 2026, 02:45 | 48 | 57 | 3 | 205 |
| May 1, 2026, 02:30 | 48 | 57 | 3 | 205 |
| May 1, 2026, 02:15 | 49 | 57 | 3 | 205 |
| May 1, 2026, 02:00 | 49 | 57 | 3 | 205 |
| May 1, 2026, 01:45 | 49 | 57 | 3 | 205 |
| May 1, 2026, 01:30 | 49 | 57 | 3 | 205 |
| May 1, 2026, 01:15 | 50 | 57 | 3 | 205 |
| May 1, 2026, 01:00 | 50 | 57 | 3 | 205 |
| May 1, 2026, 00:45 | 51 | 57 | 3 | 205 |
| May 1, 2026, 00:30 | 51 | 57 | 3 | 205 |
| May 1, 2026, 00:15 | 52 | 57 | 3 | 205 |
| April 30, 2026, 24:00 | 51 | 57 | 3 | 205 |
| April 30, 2026, 23:45 | 52 | 57 | 3 | 205 |
| April 30, 2026, 23:30 | 52 | 57 | 3 | 205 |
| April 30, 2026, 23:15 | 52 | 57 | 3 | 205 |
| April 30, 2026, 23:00 | 52 | 57 | 3 | 205 |
| April 30, 2026, 22:45 | 52 | 57 | 3 | 205 |
| April 30, 2026, 22:30 | 52 | 57 | 3 | 205 |
| April 30, 2026, 22:15 | 53 | 57 | 3 | 205 |
| April 30, 2026, 22:00 | 53 | 57 | 3 | 205 |
| April 30, 2026, 21:45 | 53 | 57 | 3 | 205 |
| April 30, 2026, 21:30 | 53 | 57 | 3 | 205 |
| April 30, 2026, 21:15 | 53 | 57 | 3 | 205 |
| April 30, 2026, 21:00 | 53 | 57 | 3 | 205 |
| April 30, 2026, 20:45 | 53 | 57 | 3 | 205 |
| April 30, 2026, 20:30 | 53 | 57 | 3 | 205 |
| April 30, 2026, 20:15 | 53 | 57 | 3 | 205 |
| April 30, 2026, 20:00 | 53 | 57 | 3 | 205 |
| April 30, 2026, 19:45 | 53 | 57 | 3 | 205 |
| April 30, 2026, 19:30 | 54 | 57 | 3 | 205 |
| April 30, 2026, 19:15 | 53 | 57 | 3 | 205 |
| April 30, 2026, 19:00 | 53 | 57 | 3 | 205 |
| April 30, 2026, 18:45 | 52 | 57 | 3 | 205 |
| April 30, 2026, 18:30 | 52 | 57 | 3 | 205 |
| April 30, 2026, 18:15 | 52 | 57 | 3 | 205 |
| April 30, 2026, 18:00 | 52 | 57 | 3 | 205 |
| April 30, 2026, 17:45 | 51 | 57 | 3 | 205 |
| April 30, 2026, 17:30 | 50 | 57 | 3 | 205 |
| April 30, 2026, 17:15 | 50 | 57 | 3 | 205 |
| April 30, 2026, 17:00 | 50 | 57 | 3 | 205 |
| April 30, 2026, 16:45 | 50 | 57 | 3 | 205 |
| April 30, 2026, 16:30 | 49 | 57 | 3 | 205 |
| April 30, 2026, 16:15 | 49 | 58 | 3 | 205 |
| April 30, 2026, 16:00 | 49 | 58 | 3 | 205 |
| April 30, 2026, 15:45 | 49 | 58 | 3 | 205 |
| April 30, 2026, 15:30 | 51 | 58 | 3 | 205 |
| April 30, 2026, 15:15 | 49 | 58 | 3 | 205 |
| April 30, 2026, 15:00 | 49 | 58 | 3 | 205 |
| April 30, 2026, 14:45 | 50 | 58 | 3 | 205 |
| April 30, 2026, 14:30 | 49 | 58 | 3 | 205 |
| April 30, 2026, 14:15 | 48 | 58 | 3 | 205 |
| April 30, 2026, 14:00 | 47 | 58 | 3 | 205 |
| April 30, 2026, 13:45 | 46 | 58 | 3 | 205 |
| April 30, 2026, 13:30 | 46 | 58 | 3 | 205 |
| April 30, 2026, 13:15 | 45 | 58 | 3 | 205 |
| April 30, 2026, 13:00 | 45 | 58 | 3 | 205 |
| April 30, 2026, 12:45 | 44 | 58 | 3 | 205 |
| April 30, 2026, 12:30 | 43 | 58 | 3 | 205 |
| April 30, 2026, 12:15 | 42 | 58 | 3 | 205 |
| April 30, 2026, 12:00 | 41 | 58 | 3 | 205 |
| April 30, 2026, 11:45 | 41 | 58 | 3 | 205 |
| April 30, 2026, 11:30 | 41 | 58 | 3 | 205 |
| April 30, 2026, 11:15 | 41 | 58 | 3 | 205 |
| April 30, 2026, 11:00 | 40 | 58 | 3 | 205 |
| April 30, 2026, 10:45 | 40 | 58 | 3 | 205 |
| April 30, 2026, 10:30 | 40 | 58 | 3 | 205 |
| April 30, 2026, 10:15 | 39 | 58 | 3 | 205 |
| April 30, 2026, 10:00 | 40 | 58 | 3 | 205 |
| April 30, 2026, 09:45 | 40 | 58 | 3 | 205 |
| April 30, 2026, 09:30 | 40 | 58 | 3 | 205 |
| April 30, 2026, 09:15 | 40 | 58 | 3 | 205 |
| April 30, 2026, 09:00 | 40 | 58 | 3 | 205 |
| April 30, 2026, 08:45 | 40 | 58 | 3 | 205 |
| April 30, 2026, 08:30 | 40 | 58 | 3 | 205 |
| April 30, 2026, 08:15 | 40 | 58 | 3 | 205 |
| April 30, 2026, 08:00 | 41 | 58 | 3 | 205 |
| April 30, 2026, 07:45 | 41 | 58 | 3 | 205 |
| April 30, 2026, 07:30 | 40 | 58 | 3 | 205 |
| April 30, 2026, 07:15 | 41 | 58 | 3 | 205 |
| April 30, 2026, 07:00 | 42 | 58 | 3 | 205 |
| April 30, 2026, 06:45 | 42 | 58 | 3 | 205 |
| April 30, 2026, 06:30 | 43 | 58 | 3 | 205 |
| April 30, 2026, 06:15 | 42 | 58 | 3 | 205 |
| April 30, 2026, 06:00 | 43 | 58 | 3 | 205 |
| April 30, 2026, 05:45 | 44 | 58 | 3 | 205 |
| April 30, 2026, 05:30 | 44 | 58 | 3 | 205 |
| April 30, 2026, 05:15 | 44 | 58 | 3 | 205 |
| April 30, 2026, 05:00 | 44 | 59 | 3 | 205 |
| April 30, 2026, 04:45 | 45 | 59 | 3 | 205 |
| April 30, 2026, 04:30 | 45 | 59 | 3 | 205 |
| April 30, 2026, 04:15 | 46 | 59 | 3 | 205 |
| April 30, 2026, 04:00 | 45 | 59 | 3 | 205 |
| April 30, 2026, 03:45 | 46 | 59 | 3 | 205 |
| April 30, 2026, 03:30 | 47 | 59 | 3 | 205 |
| April 30, 2026, 03:15 | 48 | 59 | 3 | 205 |
| April 30, 2026, 03:00 | 49 | 59 | 3 | 205 |
| April 30, 2026, 02:45 | 50 | 59 | 3 | 205 |
| April 30, 2026, 02:30 | 51 | 59 | 3 | 205 |
| April 30, 2026, 02:15 | 51 | 59 | 3 | 205 |
| April 30, 2026, 02:00 | 52 | 59 | 3 | 205 |
| April 30, 2026, 01:45 | 53 | 59 | 3 | 205 |
| April 30, 2026, 01:30 | 53 | 59 | 3 | 205 |
| April 30, 2026, 01:15 | 53 | 59 | 3 | 205 |
| April 30, 2026, 01:00 | 53 | 59 | 3 | 205 |
| April 30, 2026, 00:45 | 54 | 59 | 3 | 205 |
| April 30, 2026, 00:30 | 54 | 59 | 3 | 205 |
| April 30, 2026, 00:15 | 55 | 59 | 3 | 205 |
| April 29, 2026, 24:00 | 56 | 59 | 3 | 205 |
| April 29, 2026, 23:45 | 56 | 59 | 3 | 205 |
| April 29, 2026, 23:30 | 55 | 59 | 3 | 205 |
| April 29, 2026, 23:15 | 55 | 59 | 3 | 205 |
| April 29, 2026, 23:00 | 55 | 59 | 3 | 205 |
| April 29, 2026, 22:45 | 54 | 59 | 3 | 205 |
| April 29, 2026, 22:30 | 54 | 59 | 3 | 205 |
| April 29, 2026, 22:15 | 54 | 59 | 3 | 205 |
| April 29, 2026, 22:00 | 55 | 59 | 3 | 205 |
| April 29, 2026, 21:45 | 54 | 59 | 3 | 205 |
| April 29, 2026, 21:30 | 55 | 59 | 3 | 205 |
| April 29, 2026, 21:15 | 55 | 59 | 3 | 205 |
| April 29, 2026, 21:00 | 54 | 59 | 3 | 205 |
| April 29, 2026, 20:45 | 54 | 59 | 3 | 205 |
| April 29, 2026, 20:30 | 54 | 59 | 3 | 205 |
| April 29, 2026, 20:15 | 54 | 59 | 3 | 205 |
| April 29, 2026, 20:00 | 54 | 59 | 3 | 205 |
| April 29, 2026, 19:45 | 53 | 59 | 3 | 205 |
| April 29, 2026, 19:30 | 52 | 59 | 3 | 205 |
| April 29, 2026, 19:15 | 52 | 59 | 3 | 205 |
| April 29, 2026, 19:00 | 52 | 59 | 3 | 205 |
| April 29, 2026, 18:45 | 51 | 59 | 3 | 205 |
| April 29, 2026, 18:30 | 50 | 59 | 3 | 205 |
| April 29, 2026, 18:15 | 50 | 59 | 3 | 205 |
| April 29, 2026, 18:00 | 50 | 59 | 3 | 205 |
| April 29, 2026, 17:45 | 49 | 59 | 3 | 205 |
| April 29, 2026, 17:30 | 49 | 59 | 3 | 205 |
| April 29, 2026, 17:15 | 49 | 59 | 3 | 205 |
| April 29, 2026, 17:00 | 48 | 59 | 3 | 205 |
| April 29, 2026, 16:45 | 48 | 59 | 3 | 205 |
| April 29, 2026, 16:30 | 47 | 59 | 3 | 205 |
| April 29, 2026, 16:15 | 46 | 59 | 3 | 205 |
| April 29, 2026, 16:00 | 46 | 59 | 3 | 205 |
| April 29, 2026, 15:45 | 47 | 60 | 3 | 205 |
| April 29, 2026, 15:30 | 47 | 60 | 3 | 205 |
| April 29, 2026, 15:15 | 48 | 60 | 3 | 205 |
| April 29, 2026, 15:00 | 48 | 60 | 3 | 205 |
| April 29, 2026, 14:45 | 49 | 60 | 3 | 205 |
| April 29, 2026, 14:30 | 50 | 60 | 3 | 205 |
| April 29, 2026, 14:15 | 49 | 60 | 3 | 205 |
| April 29, 2026, 14:00 | 48 | 60 | 3 | 205 |
| April 29, 2026, 13:45 | 47 | 60 | 3 | 205 |
| April 29, 2026, 13:30 | 47 | 60 | 3 | 205 |
| April 29, 2026, 13:15 | 46 | 60 | 3 | 205 |
| April 29, 2026, 13:00 | 46 | 60 | 3 | 205 |
| April 29, 2026, 12:45 | 46 | 60 | 3 | 205 |
| April 29, 2026, 12:30 | 47 | 60 | 3 | 205 |
| April 29, 2026, 12:15 | 47 | 60 | 3 | 205 |
| April 29, 2026, 12:00 | 47 | 60 | 3 | 205 |
| April 29, 2026, 11:45 | 47 | 60 | 3 | 205 |
| April 29, 2026, 11:30 | 47 | 60 | 3 | 205 |
| April 29, 2026, 11:15 | 48 | 60 | 3 | 205 |
| April 29, 2026, 11:00 | 48 | 60 | 3 | 205 |
| April 29, 2026, 10:45 | 48 | 60 | 3 | 205 |
| April 29, 2026, 10:30 | 48 | 60 | 3 | 205 |
| April 29, 2026, 10:15 | 47 | 60 | 3 | 205 |
| April 29, 2026, 10:00 | 48 | 60 | 3 | 205 |
| April 29, 2026, 09:45 | 48 | 60 | 3 | 205 |
| April 29, 2026, 09:30 | 49 | 60 | 3 | 205 |
| April 29, 2026, 09:15 | 49 | 60 | 3 | 205 |
| April 29, 2026, 09:00 | 49 | 60 | 3 | 205 |
| April 29, 2026, 08:45 | 49 | 60 | 3 | 205 |
| April 29, 2026, 08:30 | 50 | 60 | 3 | 205 |
| April 29, 2026, 08:15 | 51 | 60 | 3 | 205 |
| April 29, 2026, 08:00 | 51 | 61 | 3 | 205 |
| April 29, 2026, 07:45 | 51 | 60 | 3 | 205 |
| April 29, 2026, 07:30 | 51 | 61 | 3 | 205 |
| April 29, 2026, 07:15 | 52 | 61 | 3 | 205 |
| April 29, 2026, 07:00 | 52 | 60 | 3 | 205 |
| April 29, 2026, 06:45 | 52 | 60 | 3 | 205 |
| April 29, 2026, 06:30 | 52 | 60 | 3 | 205 |
| April 29, 2026, 06:15 | 52 | 61 | 3 | 205 |
| April 29, 2026, 06:00 | 52 | 61 | 3 | 205 |
| April 29, 2026, 05:45 | 52 | 61 | 3 | 205 |
| April 29, 2026, 05:30 | 53 | 61 | 3 | 205 |
| April 29, 2026, 05:15 | 53 | 60 | 3 | 205 |
| April 29, 2026, 05:00 | 53 | 60 | 3 | 205 |
| April 29, 2026, 04:45 | 54 | 61 | 3 | 205 |
| April 29, 2026, 04:30 | 54 | 60 | 3 | 205 |
| April 29, 2026, 04:15 | 54 | 60 | 3 | 205 |
| April 29, 2026, 04:00 | 54 | 60 | 3 | 205 |
| April 29, 2026, 03:45 | 55 | 60 | 3 | 205 |
| April 29, 2026, 03:30 | 55 | 60 | 3 | 205 |
| April 29, 2026, 03:15 | 55 | 60 | 3 | 205 |
| April 29, 2026, 03:00 | 56 | 60 | 3 | 205 |
| April 29, 2026, 02:45 | 56 | 60 | 3 | 205 |
| April 29, 2026, 02:30 | 56 | 60 | 3 | 205 |
| April 29, 2026, 02:15 | 56 | 60 | 3 | 205 |
| April 29, 2026, 02:00 | 57 | 60 | 3 | 205 |
| April 29, 2026, 01:45 | 57 | 60 | 3 | 205 |
| April 29, 2026, 01:30 | 57 | 60 | 3 | 205 |
| April 29, 2026, 01:15 | 58 | 60 | 3 | 205 |
| April 29, 2026, 01:00 | 58 | 60 | 3 | 205 |
| April 29, 2026, 00:45 | 59 | 60 | 3 | 205 |
| April 29, 2026, 00:30 | 59 | 60 | 3 | 205 |
| April 29, 2026, 00:15 | 59 | 60 | 3 | 205 |
| April 28, 2026, 24:00 | 60 | 60 | 3 | 205 |
| April 28, 2026, 23:45 | 62 | 60 | 3 | 205 |
| April 28, 2026, 23:30 | 60 | 60 | 3 | 205 |
| April 28, 2026, 23:15 | 60 | 60 | 3 | 205 |
| April 28, 2026, 23:00 | 60 | 60 | 3 | 205 |
| April 28, 2026, 22:45 | 60 | 60 | 3 | 205 |
| April 28, 2026, 22:30 | 60 | 60 | 3 | 205 |
| April 28, 2026, 22:15 | 60 | 60 | 3 | 205 |
| April 28, 2026, 22:00 | 60 | 60 | 3 | 205 |
| April 28, 2026, 21:45 | 60 | 60 | 3 | 205 |
| April 28, 2026, 21:30 | 61 | 60 | 3 | 205 |
| April 28, 2026, 21:15 | 61 | 60 | 3 | 205 |
| April 28, 2026, 21:00 | 61 | 60 | 3 | 205 |
| April 28, 2026, 20:45 | 59 | 60 | 3 | 205 |
| April 28, 2026, 20:30 | 60 | 60 | 3 | 205 |
| April 28, 2026, 20:15 | 59 | 60 | 3 | 205 |
| April 28, 2026, 20:00 | 62 | 60 | 3 | 205 |
| April 28, 2026, 19:45 | 61 | 60 | 3 | 205 |
| April 28, 2026, 19:30 | 59 | 60 | 3 | 205 |
| April 28, 2026, 19:15 | 60 | 60 | 3 | 205 |
| April 28, 2026, 19:00 | 61 | 60 | 3 | 205 |
| April 28, 2026, 18:45 | 60 | 60 | 3 | 205 |
| April 28, 2026, 18:30 | 59 | 60 | 3 | 205 |
| April 28, 2026, 18:15 | 57 | 60 | 3 | 205 |
| April 28, 2026, 18:00 | 57 | 60 | 3 | 205 |
| April 28, 2026, 17:45 | 57 | 60 | 3 | 205 |
| April 28, 2026, 17:30 | 57 | 60 | 3 | 205 |
| April 28, 2026, 17:15 | 56 | 60 | 3 | 205 |
| April 28, 2026, 17:00 | 55 | 60 | 3 | 205 |
| April 28, 2026, 16:45 | 55 | 60 | 3 | 205 |
| April 28, 2026, 16:30 | 54 | 60 | 3 | 205 |
| April 28, 2026, 16:15 | 54 | 60 | 3 | 205 |
| April 28, 2026, 16:00 | 53 | 60 | 3 | 205 |
| April 28, 2026, 15:45 | 53 | 60 | 3 | 205 |
| April 28, 2026, 15:30 | 52 | 60 | 3 | 205 |
| April 28, 2026, 15:15 | 52 | 60 | 3 | 205 |
| April 28, 2026, 15:00 | 51 | 60 | 3 | 205 |
| April 28, 2026, 14:45 | 50 | 60 | 3 | 205 |
| April 28, 2026, 14:30 | 49 | 60 | 3 | 205 |
| April 28, 2026, 14:15 | 49 | 60 | 3 | 205 |
| April 28, 2026, 14:00 | 48 | 61 | 3 | 205 |
| April 28, 2026, 13:45 | 48 | 61 | 3 | 205 |
| April 28, 2026, 13:30 | 48 | 61 | 3 | 205 |
| April 28, 2026, 13:15 | 48 | 61 | 3 | 205 |
| April 28, 2026, 13:00 | 48 | 61 | 3 | 205 |
| April 28, 2026, 12:45 | 48 | 61 | 3 | 205 |
| April 28, 2026, 12:30 | 48 | 61 | 3 | 205 |
| April 28, 2026, 12:15 | 48 | 61 | 3 | 205 |
| April 28, 2026, 12:00 | 48 | 61 | 3 | 205 |
| April 28, 2026, 11:45 | 48 | 61 | 3 | 205 |
| April 28, 2026, 11:30 | 48 | 61 | 3 | 205 |
| April 28, 2026, 11:15 | 48 | 61 | 3 | 205 |
| April 28, 2026, 11:00 | 48 | 61 | 3 | 205 |
| April 28, 2026, 10:45 | 48 | 61 | 3 | 205 |
| April 28, 2026, 10:30 | 47 | 61 | 3 | 205 |
| April 28, 2026, 10:15 | 48 | 61 | 3 | 205 |
| April 28, 2026, 10:00 | 48 | 61 | 3 | 205 |
| April 28, 2026, 09:45 | 48 | 61 | 3 | 205 |
| April 28, 2026, 09:30 | 48 | 61 | 3 | 205 |
| April 28, 2026, 09:15 | 48 | 61 | 3 | 205 |
| April 28, 2026, 09:00 | 48 | 61 | 3 | 205 |
| April 28, 2026, 08:45 | 48 | 61 | 3 | 205 |
| April 28, 2026, 08:30 | 48 | 61 | 3 | 205 |
| April 28, 2026, 08:15 | 49 | 61 | 3 | 205 |
| April 28, 2026, 08:00 | 50 | 61 | 3 | 205 |
| April 28, 2026, 07:45 | 50 | 61 | 3 | 205 |
| April 28, 2026, 07:30 | 50 | 61 | 3 | 205 |
| April 28, 2026, 07:15 | 51 | 61 | 3 | 205 |
| April 28, 2026, 07:00 | 51 | 61 | 3 | 205 |
| April 28, 2026, 06:45 | 51 | 61 | 3 | 205 |
| April 28, 2026, 06:30 | 51 | 61 | 3 | 205 |
| April 28, 2026, 06:15 | 52 | 61 | 3 | 205 |
| April 28, 2026, 06:00 | 52 | 61 | 3 | 205 |
| April 28, 2026, 05:45 | 52 | 61 | 3 | 205 |
| April 28, 2026, 05:30 | 52 | 61 | 3 | 205 |
| April 28, 2026, 05:15 | 53 | 61 | 3 | 205 |
| April 28, 2026, 05:00 | 53 | 61 | 3 | 205 |
| April 28, 2026, 04:45 | 53 | 61 | 3 | 205 |
| April 28, 2026, 04:30 | 54 | 61 | 3 | 205 |
| April 28, 2026, 04:15 | 54 | 61 | 3 | 205 |
| April 28, 2026, 04:00 | 54 | 61 | 3 | 205 |
| April 28, 2026, 03:45 | 54 | 61 | 3 | 205 |
| April 28, 2026, 03:30 | 55 | 61 | 3 | 205 |
| April 28, 2026, 03:15 | 56 | 61 | 3 | 205 |
| April 28, 2026, 03:00 | 56 | 61 | 3 | 205 |
| April 28, 2026, 02:45 | 57 | 61 | 3 | 205 |
| April 28, 2026, 02:30 | 57 | 61 | 3 | 205 |
| April 28, 2026, 02:15 | 58 | 61 | 3 | 205 |
| April 28, 2026, 02:00 | 59 | 61 | 3 | 205 |
| April 28, 2026, 01:45 | 61 | 61 | 3 | 205 |
| April 28, 2026, 01:30 | 62 | 61 | 3 | 205 |
| April 28, 2026, 01:15 | 63 | 61 | 3 | 205 |
| April 28, 2026, 01:00 | 64 | 61 | 3 | 205 |
| April 28, 2026, 00:45 | 64 | 61 | 3 | 205 |
| April 28, 2026, 00:30 | 65 | 61 | 3 | 205 |
| April 28, 2026, 00:15 | 65 | 61 | 3 | 205 |
| April 27, 2026, 24:00 | 67 | 61 | 3 | 205 |
| April 27, 2026, 23:45 | 67 | 61 | 3 | 205 |
| April 27, 2026, 23:30 | 65 | 61 | 3 | 205 |
| April 27, 2026, 23:15 | 64 | 61 | 3 | 205 |
| April 27, 2026, 23:00 | 64 | 61 | 3 | 205 |
| April 27, 2026, 22:45 | 65 | 61 | 3 | 205 |
| April 27, 2026, 22:30 | 65 | 61 | 3 | 205 |
| April 27, 2026, 22:15 | 66 | 61 | 3 | 205 |
| April 27, 2026, 22:00 | 65 | 61 | 3 | 205 |
| April 27, 2026, 21:45 | 63 | 61 | 3 | 205 |
| April 27, 2026, 21:30 | 66 | 61 | 3 | 205 |
| April 27, 2026, 21:15 | 68 | 61 | 3 | 205 |
| April 27, 2026, 21:00 | 69 | 61 | 3 | 205 |
| April 27, 2026, 20:45 | 69 | 61 | 3 | 205 |
| April 27, 2026, 20:30 | 69 | 61 | 3 | 205 |
| April 27, 2026, 20:15 | 69 | 61 | 3 | 205 |
| April 27, 2026, 20:00 | 68 | 61 | 3 | 205 |
| April 27, 2026, 19:45 | 67 | 61 | 3 | 205 |
| April 27, 2026, 19:30 | 66 | 61 | 3 | 205 |
| April 27, 2026, 19:15 | 64 | 61 | 3 | 205 |
| April 27, 2026, 19:00 | 63 | 61 | 3 | 205 |
| April 27, 2026, 18:45 | 63 | 61 | 3 | 205 |
| April 27, 2026, 18:30 | 63 | 61 | 3 | 205 |
| April 27, 2026, 18:15 | 63 | 61 | 3 | 205 |
| April 27, 2026, 18:00 | 63 | 61 | 3 | 205 |
| April 27, 2026, 17:45 | 63 | 61 | 3 | 205 |
| April 27, 2026, 17:30 | 64 | 61 | 3 | 205 |
| April 27, 2026, 17:15 | 63 | 61 | 3 | 205 |
| April 27, 2026, 17:00 | 61 | 61 | 3 | 205 |
| April 27, 2026, 16:45 | 61 | 61 | 3 | 205 |
| April 27, 2026, 16:30 | 60 | 61 | 3 | 205 |
| April 27, 2026, 16:15 | 58 | 61 | 3 | 205 |